Flight Track Log - Related Links

Times and Time Zones

All times are in EDT time to prevent confusion due to time zone crossing. See the BAW283 flight status page for this flight to view local times or setup timezone preferences in your user account.

Time Position Orientation Groundspeed Altitude Reporting Facility
EDT Latitude Longitude Course Direction KTS MPH feet Rate Location/Type
Thu 07:35:52 AM 51.4650 -0.4960 268° West 159 183 1,000  Level FlightAware ADS-B
Thu 07:35:59 AM 51.4643 -0.5081 265° West 159 183 1,300 1,364 Climbing FlightAware ADS-B
Thu 07:36:14 AM 51.4668 -0.5262 283° West 175 201 1,500 889 Climbing FlightAware ADS-B
Thu 07:36:26 AM 51.4725 -0.5391 305° West 196 226 1,700 1,429 Climbing FlightAware ADS-B
Thu 07:36:35 AM 51.4772 -0.5500 305° West 198 228 2,000 2,118 Climbing FlightAware ADS-B
Thu 07:36:43 AM 51.4814 -0.5612 301° West 197 227 2,300 2,250 Climbing FlightAware ADS-B
Thu 07:36:59 AM 51.4882 -0.5814 298° West 195 224 2,900 2,222 Climbing FlightAware ADS-B
Thu 07:37:10 AM 51.4931 -0.5953 300° West 194 223 3,300 2,211 Climbing FlightAware ADS-B
Thu 07:37:18 AM 51.4966 -0.6055 299° West 192 221 3,600 2,182 Climbing FlightAware ADS-B
Thu 07:37:32 AM 51.5021 -0.6234 296° West 192 221 4,100 1,800 Climbing FlightAware ADS-B
Thu 07:37:48 AM 51.5086 -0.6442 297° West 201 231 4,500 1,333 Climbing FlightAware ADS-B
Thu 07:37:59 AM 51.5134 -0.6594 297° West 215 247 4,700 1,125 Climbing FlightAware ADS-B
Thu 07:38:04 AM 51.5155 -0.6651 301° West 223 257 4,800 600 Climbing FlightAware ADS-B
Thu 07:38:09 AM 51.5195 -0.6733 308° West 237 273 4,800 667 Level FlightAware ADS-B
Thu 07:38:13 AM 51.5226 -0.6783 315° West 248 285 4,900 1,500 Climbing FlightAware ADS-B
Thu 07:38:17 AM 51.5262 -0.6825 324° Northwest 262 302 5,000 857 Climbing FlightAware ADS-B
Thu 07:38:20 AM 51.5300 -0.6854 335° Northwest 269 310 5,000 1,333 Level FlightAware ADS-B
Thu 07:38:26 AM 51.5376 -0.6895 341° North 283 326 5,200 1,800 Climbing FlightAware ADS-B
Thu 07:38:30 AM 51.5420 -0.6912 347° North 290 334 5,300 1,714 Climbing FlightAware ADS-B
Thu 07:38:33 AM 51.5463 -0.6918 355° North 296 341 5,400 1,500 Climbing FlightAware ADS-B
Thu 07:38:38 AM 51.5530 -0.6918 360° North 303 349 5,500 1,636 Climbing FlightAware ADS-B
Thu 07:38:44 AM 51.5617 -0.6907 North 310 357 5,700 1,875 Climbing FlightAware ADS-B
Thu 07:38:54 AM 51.5767 -0.6886 North 314 361 6,000 1,043 Climbing FlightAware ADS-B
Thu 07:39:07 AM 51.5953 -0.6873 North 318 366 6,100 600 Climbing FlightAware ADS-B
Thu 07:39:14 AM 51.6055 -0.6857 North 322 371 6,200 545 Climbing FlightAware ADS-B
Thu 07:39:18 AM 51.6114 -0.6836 12° North 323 372 6,200  Level FlightAware ADS-B
Thu 07:39:22 AM 51.6175 -0.6804 18° North 325 374 6,200  Level FlightAware ADS-B
Thu 07:39:27 AM 51.6240 -0.6754 26° Northeast 326 375 6,200  Level FlightAware ADS-B
Thu 07:39:43 AM 51.6445 -0.6558 31° Northeast 322 371 6,200 -194 Level FlightAware ADS-B
Thu 07:39:58 AM 51.6638 -0.6374 31° Northeast 319 367 6,100  Descending FlightAware ADS-B
Thu 07:40:08 AM 51.6767 -0.6255 30° Northeast 321 369 6,200  Climbing FlightAware ADS-B
Thu 07:40:16 AM 51.6863 -0.6179 26° Northeast 321 369 6,100 -429 Descending FlightAware ADS-B
Thu 07:40:22 AM 51.6957 -0.6112 24° Northeast 321 369 6,100 273 Level FlightAware ADS-B
Thu 07:40:38 AM 51.7176 -0.5976 21° North 323 372 6,200 194 Climbing FlightAware ADS-B
Thu 07:40:53 AM 51.7390 -0.5850 20° North 327 376 6,200 387 Level FlightAware ADS-B
Thu 07:41:09 AM 51.7610 -0.5714 21° North 328 377 6,400 1,742 Climbing FlightAware ADS-B
Thu 07:41:24 AM 51.7823 -0.5587 20° North 326 375 7,100 2,813 Climbing FlightAware ADS-B
Thu 07:41:41 AM 51.8063 -0.5444 20° North 329 379 7,900 2,545 Climbing FlightAware ADS-B
Thu 07:41:57 AM 51.8292 -0.5318 19° North 333 383 8,500 2,571 Climbing FlightAware ADS-B
Thu 07:42:16 AM 51.8569 -0.5147 21° North 335 386 9,400 2,294 Climbing FlightAware ADS-B
Thu 07:42:31 AM 51.8799 -0.5011 20° North 340 391 9,800 2,000 Climbing FlightAware ADS-B
Thu 07:42:55 AM 51.9151 -0.4799 20° North 346 398 10,700 1,941 Climbing FlightAware ADS-B
Thu 07:43:05 AM 51.9313 -0.4744 12° North 351 404 10,900 1,350 Climbing FlightAware ADS-B
Thu 07:43:35 AM 51.9813 -0.4645 North 374 430 11,600 -652 Climbing FlightAware ADS-B
Thu 07:43:51 AM 52.0080 -0.4590 North 358 412 10,400 1,355 Descending FlightAware UK
Thu 07:44:06 AM 52.0350 -0.4541 North 398 458 12,300 1,167 Climbing FlightAware ADS-B
Thu 07:44:27 AM 52.0743 -0.4458 North 388 447 11,100 1,355 Descending FlightAware UK
Thu 07:44:37 AM 52.0934 -0.4415 North 416 479 13,000 2,200 Climbing FlightAware ADS-B
Thu 07:44:57 AM 52.1321 -0.4326 North 400 460 12,200 2,129 Descending FlightAware UK
Thu 07:45:08 AM 52.1540 -0.4277 North 423 487 14,100 4,541 Climbing FlightAware ADS-B
Thu 07:45:34 AM 52.2039 -0.4172 North 427 491 15,000 2,057 Climbing FlightAware ADS-B
Thu 07:45:43 AM 52.2217 -0.4161 North 425 489 15,300 1,714 Climbing FlightAware ADS-B
Thu 07:45:48 AM 52.2328 -0.4175 356° North 423 487 15,400 1,579 Climbing FlightAware ADS-B
Thu 07:46:02 AM 52.2585 -0.4296 344° North 415 478 15,800 -909 Climbing FlightAware ADS-B
Thu 07:46:21 AM 52.2901 -0.4561 344° North 414 476 14,900 2,000 Descending FlightAware UK
Thu 07:46:32 AM 52.3100 -0.4716 344° North 417 480 16,800 4,000 Climbing FlightAware ADS-B
Thu 07:47:03 AM 52.3620 -0.5148 333° Northwest 423 487 17,700 1,869 Climbing FlightAware ADS-B
Thu 07:47:33 AM 52.4159 -0.5601 333° Northwest 428 493 18,700  Climbing FlightAware ADS-B
Thu 07:47:51 AM 52.4471 -0.5874 333° Northwest 436 502 17,700 -833 Descending FlightAware UK
Thu 07:48:09 AM 52.4792 -0.6141 333° Northwest 438 504 18,200 4,688 Climbing FlightAware UK
Thu 07:48:23 AM 52.5041 -0.6351 333° Northwest 432 497 20,200 4,043 Climbing FlightAware ADS-B
Thu 07:48:55 AM 52.5615 -0.6820 334° Northwest 441 507 21,300 2,063 Climbing FlightAware ADS-B
Thu 07:49:27 AM 52.6198 -0.7314 333° Northwest 445 512 22,400 706 Climbing FlightAware ADS-B
Thu 07:50:03 AM 52.6860 -0.7899 333° Northwest 462 532 22,100 1,900 Descending FlightAware UK
Thu 07:50:27 AM 52.7280 -0.8250 333° Northwest 453 521 24,300 3,600 Climbing FlightAware ADS-B
Thu 07:50:53 AM 52.7788 -0.8687 333° Northwest 447 514 25,100 -439 Climbing FlightAware ADS-B
Thu 07:51:08 AM 52.8089 -0.8960 333° Northwest 474 545 24,000 -769 Descending FlightAware UK
Thu 07:51:32 AM 52.8544 -0.9354 332° Northwest 478 550 24,600 3,409 Climbing FlightAware UK
Thu 07:51:52 AM 52.8850 -0.9600 332° Northwest 468 539 26,500 1,111 Climbing FlightAware ADS-B
Thu 07:52:26 AM 52.9589 -1.0259 332° Northwest 484 557 25,600 1,200 Descending FlightAware UK
Thu 07:52:37 AM 52.9750 -1.0380 332° Northwest 481 554 27,400 6,667 Climbing FlightAware ADS-B
Thu 07:52:44 AM 52.9928 -1.0531 333° Northwest 484 557 27,600 -1,548 Climbing FlightAware ADS-B
Thu 07:53:08 AM 53.0425 -1.0974 333° Northwest 492 566 26,600 1,548 Descending FlightAware UK
Thu 07:53:15 AM 53.0556 -1.1081 333° Northwest 486 559 28,400 1,500 Climbing FlightAware ADS-B
Thu 07:53:32 AM 53.0900 -1.1385 333° Northwest 490 564 27,200 1,355 Descending FlightAware UK
Thu 07:53:46 AM 53.1179 -1.1621 333° Northwest 490 564 29,100 2,167 Climbing FlightAware ADS-B
Thu 07:54:08 AM 53.1618 -1.2014 333° Northwest 478 550 28,500 2,250 Descending FlightAware UK
Thu 07:54:18 AM 53.1804 -1.2173 333° Northwest 480 552 30,300 3,366 Climbing FlightAware ADS-B
Thu 07:54:49 AM 53.2410 -1.2691 333° Northwest 487 560 30,800 -750 Climbing FlightAware ADS-B
Thu 07:55:14 AM 53.2924 -1.3158 333° Northwest 492 566 29,600 909 Descending FlightAware UK
Thu 07:55:22 AM 53.3010 -1.3230 333° Northwest 490 564 31,300 1,600 Climbing FlightAware ADS-B
Thu 07:55:44 AM 53.3524 -1.3693 333° Northwest 496 571 30,400 1,448 Descending FlightAware UK
Thu 07:55:51 AM 53.3658 -1.3817 333° Northwest 489 563 32,000 250 Climbing FlightAware ADS-B
Thu 07:56:08 AM 53.3984 -1.4152 333° Northwest 490 564 30,500 -1,915 Descending FlightAware UK
Thu 07:56:38 AM 53.4557 -1.4742 328° Northwest 492 566 30,500 2,250 Level FlightAware UK
Thu 07:56:48 AM 53.4746 -1.4928 328° Northwest 489 563 32,000  Climbing FlightAware ADS-B
Thu 07:57:08 AM 53.5135 -1.5329 328° Northwest 490 564 30,500 -2,368 Descending FlightAware UK
Thu 07:57:26 AM 53.5482 -1.5682 329° Northwest 488 562 30,500 4,737 Level FlightAware UK
Thu 07:57:27 AM 53.5470 -1.5650 329° Northwest 488 562 32,000  Climbing FlightAware ADS-B
Thu 07:57:50 AM 53.5943 -1.6148 329° Northwest 492 566 30,500  Descending FlightAware UK
Thu 07:58:12 AM 53.6300 -1.6500 329° Northwest 492 566 32,000  Climbing FlightAware ADS-B
Thu 07:58:32 AM 53.6762 -1.6973 329° Northwest 492 566 30,500 -2,368 Descending FlightAware UK
Thu 07:58:50 AM 53.7114 -1.7328 329° Northwest 492 566 30,500 4,500 Level FlightAware UK
Thu 07:58:52 AM 53.7070 -1.7270 329° Northwest 493 567 32,000  Climbing FlightAware ADS-B
Thu 07:59:08 AM 53.7466 -1.7685 329° Northwest 494 568 30,500 -2,647 Descending FlightAware UK
Thu 07:59:26 AM 53.7818 -1.8042 329° Northwest 494 568 30,500 3,750 Level FlightAware UK
Thu 07:59:32 AM 53.7870 -1.8100 329° Northwest 492 566 32,000  Climbing FlightAware ADS-B
Thu 07:59:50 AM 53.8281 -1.8517 329° Northwest 494 568 30,500 -2,500 Descending FlightAware UK
Thu 08:00:08 AM 53.8631 -1.8877 329° Northwest 498 573 30,500 2,432 Level FlightAware UK
Thu 08:00:27 AM 53.8920 -1.9150 329° Northwest 489 563 32,000 1,525 Climbing FlightAware ADS-B
Thu 08:01:07 AM 53.9720 -1.9980 329° Northwest 486 559 32,000  Level FlightAware ADS-B
Thu 08:01:47 AM 54.0430 -2.0720 329° Northwest 487 560 32,000 -1,364 Level FlightAware ADS-B
Thu 08:02:13 AM 54.1055 -2.1374 329° Northwest 498 573 30,500  Descending FlightAware UK
Thu 08:02:27 AM 54.1240 -2.1560 329° Northwest 488 562 32,000  Climbing FlightAware ADS-B
Thu 08:02:43 AM 54.1632 -2.1977 329° Northwest 492 566 30,500 -2,647 Descending FlightAware UK
Thu 08:03:01 AM 54.1978 -2.2338 329° Northwest 490 564 30,500 3,750 Level FlightAware UK
Thu 08:03:07 AM 54.2010 -2.2360 329° Northwest 485 558 32,000  Climbing FlightAware ADS-B
Thu 08:03:31 AM 54.2553 -2.2939 329° Northwest 488 562 30,500  Descending FlightAware UK
Thu 08:03:47 AM 54.2780 -2.3160 328° Northwest 487 560 32,000  Climbing FlightAware ADS-B
Thu 08:03:49 AM 54.2898 -2.3301 328° Northwest 488 562 30,500 -2,813 Descending FlightAware UK
Thu 08:04:19 AM 54.3475 -2.3906 328° Northwest 492 566 30,500 2,368 Level FlightAware UK
Thu 08:04:27 AM 54.3570 -2.3990 328° Northwest 490 564 32,000  Climbing FlightAware ADS-B
Thu 08:04:43 AM 54.3937 -2.4397 328° Northwest 492 566 30,500 -2,647 Descending FlightAware UK
Thu 08:05:01 AM 54.4281 -2.4761 328° Northwest 492 566 30,500 3,750 Level FlightAware UK
Thu 08:05:07 AM 54.4360 -2.4830 328° Northwest 490 564 32,000  Climbing FlightAware ADS-B
Thu 08:05:31 AM 54.4861 -2.5373 328° Northwest 494 568 30,500  Descending FlightAware UK
Thu 08:05:47 AM 54.5050 -2.5570 328° Northwest 489 563 32,000  Climbing FlightAware ADS-B
Thu 08:05:49 AM 54.5208 -2.5742 328° Northwest 492 566 30,500 -4,500 Descending FlightAware UK
Thu 08:06:07 AM 54.5555 -2.6108 328° Northwest 494 568 30,500 2,093 Level FlightAware UK
Thu 08:06:32 AM 54.5990 -2.6570 328° Northwest 489 563 32,000  Climbing FlightAware ADS-B
Thu 08:06:49 AM 54.6361 -2.6972 328° Northwest 492 566 30,500 -2,571 Descending FlightAware UK
Thu 08:07:07 AM 54.6706 -2.7344 328° Northwest 496 571 30,500 3,913 Level FlightAware UK
Thu 08:07:12 AM 54.6760 -2.7400 328° Northwest 489 563 32,000  Climbing FlightAware ADS-B
Thu 08:07:31 AM 54.7154 -2.7871 328° Northwest 494 568 30,500 -2,432 Descending FlightAware UK
Thu 08:07:49 AM 54.7479 -2.8295 323° Northwest 492 566 30,500 3,462 Level FlightAware UK
Thu 08:07:57 AM 54.7570 -2.8430 323° Northwest 486 559 32,000  Climbing FlightAware ADS-B
Thu 08:08:13 AM 54.7900 -2.8879 323° Northwest 490 564 30,500 -2,250 Descending FlightAware UK
Thu 08:08:37 AM 54.8320 -2.9464 321° Northwest 492 566 30,500 3,750 Level FlightAware UK
Thu 08:08:37 AM 54.8210 -2.9300 321° Northwest 487 560 32,000  Climbing FlightAware ADS-B
Thu 08:08:55 AM 54.8636 -2.9903 321° Northwest 494 568 30,500 -2,500 Descending FlightAware UK
Thu 08:09:13 AM 54.8949 -3.0341 321° Northwest 492 566 30,500 4,091 Level FlightAware UK
Thu 08:09:17 AM 54.8980 -3.0380 321° Northwest 489 563 32,000  Climbing FlightAware ADS-B
Thu 08:09:43 AM 54.9475 -3.1084 321° Northwest 494 568 30,500  Descending FlightAware UK
Thu 08:10:02 AM 54.9780 -3.1500 321° Northwest 489 563 32,000  Climbing FlightAware ADS-B
Thu 08:10:25 AM 55.0214 -3.2127 321° Northwest 496 571 30,500  Descending FlightAware UK
Thu 08:10:37 AM 55.0350 -3.2310 321° Northwest 489 563 32,000  Climbing FlightAware ADS-B
Thu 08:10:55 AM 55.0742 -3.2871 321° Northwest 492 566 30,500 -2,143 Descending FlightAware UK
Thu 08:11:19 AM 55.1160 -3.3462 321° Northwest 494 568 30,500 3,333 Level FlightAware UK
Thu 08:11:22 AM 55.1110 -3.3380 321° Northwest 489 563 32,000  Climbing FlightAware ADS-B
Thu 08:11:37 AM 55.1476 -3.3910 321° Northwest 496 571 30,500 -2,727 Descending FlightAware UK
Thu 08:11:55 AM 55.1791 -3.4360 321° Northwest 494 568 30,500 3,000 Level FlightAware UK
Thu 08:12:07 AM 55.1920 -3.4530 321° Northwest 489 563 32,000  Climbing FlightAware ADS-B
Thu 08:12:43 AM 55.2630 -3.5567 321° Northwest 490 564 30,500  Descending FlightAware UK
Thu 08:12:47 AM 55.2660 -3.5590 321° Northwest 491 565 32,000 1,837 Climbing FlightAware ADS-B
Thu 08:13:32 AM 55.3450 -3.6720 321° Northwest 493 567 32,000 -1,452 Level FlightAware ADS-B
Thu 08:13:49 AM 55.3792 -3.7231 321° Northwest 490 564 30,500  Descending FlightAware UK
Thu 08:14:12 AM 55.4170 -3.7760 321° Northwest 495 570 32,000 1,698 Climbing FlightAware ADS-B
Thu 08:14:42 AM 55.4640 -3.8450 320° Northwest 494 568 32,000  Level FlightAware ADS-B
Thu 08:15:22 AM 55.5340 -3.9480 320° Northwest 492 566 32,000 -1,233 Level FlightAware ADS-B
Thu 08:15:55 AM 55.6005 -4.0454 320° Northwest 494 568 30,500 -1,765 Descending FlightAware UK
Thu 08:16:13 AM 55.6319 -4.0914 320° Northwest 490 564 30,500  Level FlightAware UK
Thu 08:16:37 AM 55.6737 -4.1529 320° Northwest 494 568 30,500  Level FlightAware UK
Thu 08:17:01 AM 55.7155 -4.2146 320° Northwest 486 559 30,500  Level FlightAware UK
Thu 08:17:19 AM 55.7468 -4.2610 320° Northwest 488 562 30,500  Level FlightAware UK
Thu 08:17:37 AM 55.7782 -4.3074 320° Northwest 488 562 30,500 203 Level FlightAware UK
Thu 08:18:18 AM 55.8509 -4.4159 320° Northwest 492 566 30,700 400 Climbing FlightAware UK
Thu 08:18:37 AM 55.8825 -4.4627 320° Northwest 490 564 30,900 500 Climbing FlightAware UK
Thu 08:18:54 AM 55.9115 -4.5110 317° Northwest 488 562 31,000 500 Climbing FlightAware UK
Thu 08:19:13 AM 55.9405 -4.5622 315° West 488 562 31,200 486 Climbing FlightAware UK
Thu 08:19:31 AM 55.9697 -4.6133 316° Northwest 494 568 31,300 4,250 Climbing FlightAware UK
Thu 08:19:37 AM 55.9740 -4.6190 316° Northwest 494 568 32,900 522 Climbing FlightAware ADS-B
Thu 08:19:54 AM 56.0082 -4.6814 316° Northwest 496 571 31,500 150 Descending FlightAware UK
Thu 08:20:17 AM 56.0390 -4.7340 316° Northwest 496 571 33,000  Climbing FlightAware ADS-B
Thu 08:20:36 AM 56.0760 -4.8040 316° Northwest 498 573 31,500 -2,432 Descending FlightAware UK
Thu 08:20:54 AM 56.1028 -4.8603 311° West 498 573 31,500 3,462 Level FlightAware UK
Thu 08:21:02 AM 56.1090 -4.8740 311° West 496 571 33,000  Climbing FlightAware ADS-B
Thu 08:21:18 AM 56.1366 -4.9380 311° West 496 571 31,500 -2,647 Descending FlightAware UK
Thu 08:21:36 AM 56.1614 -4.9973 307° West 494 568 31,500 3,750 Level FlightAware UK
Thu 08:21:42 AM 56.1640 -5.0050 307° West 498 573 33,000  Climbing FlightAware ADS-B
Thu 08:22:00 AM 56.1937 -5.0768 307° West 496 571 31,500 -2,500 Descending FlightAware UK
Thu 08:22:18 AM 56.2181 -5.1371 306° West 496 571 31,500 4,091 Level FlightAware UK
Thu 08:22:22 AM 56.2170 -5.1350 306° West 500 575 33,000  Climbing FlightAware ADS-B
Thu 08:22:42 AM 56.2506 -5.2180 306° West 496 571 31,500  Descending FlightAware UK
Thu 08:23:07 AM 56.2790 -5.2910 306° West 502 578 33,000  Climbing FlightAware ADS-B
Thu 08:23:24 AM 56.3073 -5.3602 306° West 496 571 31,500 -2,571 Descending FlightAware UK
Thu 08:23:42 AM 56.3316 -5.4216 306° West 496 571 31,500 3,913 Level FlightAware UK
Thu 08:23:47 AM 56.3340 -5.4270 306° West 503 579 33,000  Climbing FlightAware ADS-B
Thu 08:24:06 AM 56.3640 -5.5035 306° West 496 571 31,500 -2,432 Descending FlightAware UK
Thu 08:24:24 AM 56.3883 -5.5652 305° West 500 575 31,500 3,462 Level FlightAware UK
Thu 08:24:32 AM 56.3940 -5.5810 305° West 505 581 33,000  Climbing FlightAware ADS-B
Thu 08:24:54 AM 56.4287 -5.6685 305° West 500 575 31,500  Descending FlightAware UK
Thu 08:25:12 AM 56.4460 -5.7110 305° West 505 581 33,000  Climbing FlightAware ADS-B
Thu 08:25:30 AM 56.4771 -5.7925 305° West 498 573 31,500  Descending FlightAware UK
Thu 08:25:47 AM 56.4960 -5.8390 305° West 505 581 33,000  Climbing FlightAware ADS-B
Thu 08:25:48 AM 56.5012 -5.8545 305° West 500 575 31,500 -4,737 Descending FlightAware UK
Thu 08:26:06 AM 56.5254 -5.9166 305° West 502 578 31,500  Level FlightAware UK
Thu 08:26:24 AM 56.5497 -5.9787 305° West 502 578 31,500 2,903 Level FlightAware UK
Thu 08:26:37 AM 56.5630 -6.0110 305° West 504 580 33,000  Climbing FlightAware ADS-B
Thu 08:26:54 AM 56.5898 -6.0824 305° West 496 571 31,500 -2,571 Descending FlightAware UK
Thu 08:27:12 AM 56.6137 -6.1448 305° West 498 573 31,500 3,214 Level FlightAware UK
Thu 08:27:22 AM 56.6200 -6.1600 305° West 504 580 33,000  Climbing FlightAware ADS-B
Thu 08:27:42 AM 56.6536 -6.2488 305° West 498 573 31,500  Descending FlightAware UK
Thu 08:28:02 AM 56.6720 -6.2950 305° West 502 578 33,000  Climbing FlightAware ADS-B
Thu 08:28:18 AM 56.7012 -6.3733 305° West 494 568 31,500 -2,647 Descending FlightAware UK
Thu 08:28:36 AM 56.7247 -6.4348 305° West 496 571 31,500 3,750 Level FlightAware UK
Thu 08:28:42 AM 56.7260 -6.4370 305° West 496 571 33,000  Climbing FlightAware ADS-B
Thu 08:29:00 AM 56.7563 -6.5178 305° West 492 566 31,500 -2,500 Descending FlightAware UK
Thu 08:29:18 AM 56.7798 -6.5802 305° West 492 566 31,500 3,333 Level FlightAware UK
Thu 08:29:27 AM 56.7840 -6.5890 305° West 496 571 33,000  Climbing FlightAware ADS-B
Thu 08:29:42 AM 56.8111 -6.6636 305° West 494 568 31,500 -2,727 Descending FlightAware UK
Thu 08:30:00 AM 56.8346 -6.7263 304° West 492 566 31,500 3,600 Level FlightAware UK
Thu 08:30:07 AM 56.8360 -6.7280 304° West 496 571 33,000  Climbing FlightAware ADS-B
Thu 08:30:24 AM 56.8660 -6.8097 304° West 496 571 31,500 -2,571 Descending FlightAware UK
Thu 08:30:42 AM 56.8895 -6.8724 304° West 494 568 31,500 3,214 Level FlightAware UK
Thu 08:30:52 AM 56.8950 -6.8880 304° West 496 571 33,000  Climbing FlightAware ADS-B
Thu 08:31:12 AM 56.9285 -6.9771 304° West 498 573 31,500  Descending FlightAware UK
Thu 08:31:32 AM 56.9480 -7.0280 304° West 494 568 33,000  Climbing FlightAware ADS-B
Thu 08:31:48 AM 56.9751 -7.1028 304° West 496 571 31,500 -2,647 Descending FlightAware UK
Thu 08:32:06 AM 56.9982 -7.1659 304° West 496 571 31,500 3,750 Level FlightAware UK
Thu 08:32:12 AM 56.9940 -7.1540 304° West 497 572 33,000  Climbing FlightAware ADS-B
Thu 08:32:30 AM 57.0291 -7.2498 304° West 496 571 31,500 -2,500 Descending FlightAware UK
Thu 08:32:48 AM 57.0522 -7.3127 304° West 494 568 31,500 3,333 Level FlightAware UK
Thu 08:32:57 AM 57.0580 -7.3250 304° West 497 572 33,000  Climbing FlightAware ADS-B
Thu 08:33:12 AM 57.0830 -7.3966 304° West 494 568 31,500 -2,727 Descending FlightAware UK
Thu 08:33:30 AM 57.1060 -7.4597 304° West 498 573 31,500 3,000 Level FlightAware UK
Thu 08:33:42 AM 57.1160 -7.4860 304° West 492 566 33,000  Climbing FlightAware ADS-B
Thu 08:34:00 AM 57.1448 -7.5642 304° West 492 566 31,500  Descending FlightAware UK
Thu 08:34:12 AM 57.1540 -7.5870 304° West 492 566 33,000  Climbing FlightAware ADS-B
Thu 08:34:18 AM 57.1679 -7.6262 304° West 494 568 31,500 -5,000 Descending FlightAware UK
Thu 08:34:30 AM 57.1834 -7.6682 304° West 494 568 31,500  Level FlightAware UK
Thu 08:34:48 AM 57.2066 -7.7312 304° West 494 568 31,500 2,813 Level FlightAware UK
Thu 08:35:02 AM 57.2170 -7.7550 304° West 492 566 33,000  Climbing FlightAware ADS-B
Thu 08:35:18 AM 57.2452 -7.8365 304° West 496 571 31,500 -2,647 Descending FlightAware UK
Thu 08:35:36 AM 57.2683 -7.8997 304° West 494 568 31,500 3,103 Level FlightAware UK
Thu 08:35:47 AM 57.2770 -7.9240 304° West 496 571 33,000  Climbing FlightAware ADS-B
Thu 08:36:06 AM 57.3066 -8.0053 304° West 494 568 31,500 -2,432 Descending FlightAware UK
Thu 08:36:24 AM 57.3297 -8.0685 304° West 494 568 31,500 4,286 Level FlightAware UK
Thu 08:36:27 AM 57.3270 -8.0610 304° West 496 571 33,000  Climbing FlightAware ADS-B
Thu 08:36:42 AM 57.3526 -8.1321 304° West 496 571 31,500 -2,727 Descending FlightAware UK
Thu 08:37:00 AM 57.3754 -8.1958 304° West 496 571 31,500 2,571 Level FlightAware UK
Thu 08:37:17 AM 57.3870 -8.2310 304° West 496 571 33,000  Climbing FlightAware ADS-B
Thu 08:37:18 AM 57.3982 -8.2593 304° West 496 571 31,500 -4,737 Descending FlightAware UK
Thu 08:37:36 AM 57.4209 -8.3229 304° West 494 568 31,500  Level FlightAware UK
Thu 08:37:54 AM 57.4436 -8.3864 304° West 494 568 31,500 2,903 Level FlightAware UK
Thu 08:38:07 AM 57.4540 -8.4140 304° West 494 568 33,000  Climbing FlightAware ADS-B
Thu 08:38:24 AM 57.4813 -8.4924 304° West 496 571 31,500 -2,571 Descending FlightAware UK
Thu 08:38:42 AM 57.5040 -8.5559 304° West 496 571 31,500 3,913 Level FlightAware UK
Thu 08:38:47 AM 57.5040 -8.5550 304° West 493 567 33,000  Climbing FlightAware ADS-B
Thu 08:39:06 AM 57.5341 -8.6405 304° West 494 568 31,500 -2,432 Descending FlightAware UK
Thu 08:39:24 AM 57.5564 -8.7042 303° West 492 566 31,500 3,462 Level FlightAware UK
Thu 08:39:32 AM 57.5590 -8.7100 303° West 486 559 33,000  Climbing FlightAware ADS-B
Thu 08:39:48 AM 57.5860 -8.7889 303° West 494 568 31,500 -2,647 Descending FlightAware UK
Thu 08:40:06 AM 57.6082 -8.8524 303° West 492 566 31,500 3,750 Level FlightAware UK
Thu 08:40:12 AM 57.6100 -8.8550 303° West 485 558 33,000  Climbing FlightAware ADS-B
Thu 08:40:30 AM 57.6378 -8.9372 303° West 492 566 31,500 -2,500 Descending FlightAware UK
Thu 08:40:48 AM 57.6597 -9.0000 303° West 488 562 31,500 4,091 Level FlightAware UK
Thu 08:40:52 AM 57.6610 -9.0040 303° West 485 558 33,000 1,837 Climbing FlightAware ADS-B
Thu 08:41:37 AM 57.7160 -9.1590 304° West 485 558 33,000  Level FlightAware ADS-B
Thu 08:42:17 AM 57.7650 -9.3050 302° West 487 560 33,000  Level FlightAware ADS-B
Thu 08:43:02 AM 57.8200 -9.4640 303° West 491 565 33,000  Level FlightAware ADS-B
Thu 08:43:42 AM 57.8700 -9.6120 302° West 493 567 33,000  Level FlightAware ADS-B
Thu 08:44:22 AM 57.9190 -9.7540 303° West 492 566 33,000  Level FlightAware ADS-B
Thu 08:45:07 AM 57.9750 -9.9210 302° West 487 560 33,000  Level FlightAware ADS-B
Thu 08:45:47 AM 58.0310 -10.0610 307° West 487 560 33,000  Level FlightAware ADS-B
Thu 08:46:27 AM 58.0870 -10.1760 313° West 479 551 33,000  Level FlightAware ADS-B
Thu 08:47:07 AM 58.1450 -10.2940 313° West 478 550 33,000  Level FlightAware ADS-B
Thu 08:47:52 AM 58.2190 -10.4460 313° West 478 550 33,000  Level FlightAware ADS-B
Thu 08:48:37 AM 58.2850 -10.5830 313° West 483 556 33,000  Level FlightAware ADS-B
Thu 08:49:17 AM 58.3430 -10.7060 312° West 482 555 33,000  Level FlightAware ADS-B
Thu 08:50:02 AM 58.4130 -10.8500 313° West 483 556 33,000  Level FlightAware ADS-B
Thu 08:50:52 AM 58.4800 -10.9930 312° West 484 557 33,000  Level FlightAware ADS-B
Thu 08:51:37 AM 58.5580 -11.1590 312° West 487 560 33,000  Level FlightAware ADS-B
Thu 08:52:32 AM 58.6340 -11.3230 312° West 487 560 33,000  Level FlightAware ADS-B
Thu 08:53:12 AM 58.6980 -11.4620 312° West 489 563 33,000  Level FlightAware ADS-B
Thu 08:53:47 AM 58.7460 -11.5620 313° West 489 563 33,000  Level FlightAware ADS-B
Thu 08:54:42 AM 58.8180 -11.7220 311° West 489 563 33,000  Level FlightAware ADS-B
Thu 08:55:22 AM 58.8920 -11.8830 312° West 491 565 33,000  Level FlightAware ADS-B
Thu 08:56:02 AM 58.9470 -12.0060 311° West 491 565 33,000  Level FlightAware ADS-B
Thu 08:56:47 AM 59.0070 -12.1390 311° West 491 565 33,000  Level FlightAware ADS-B
Thu 08:57:27 AM 59.0570 -12.2520 311° West 491 565 33,000  Level FlightAware ADS-B
Thu 08:58:07 AM 59.1080 -12.3650 311° West 491 565 33,000  Level FlightAware ADS-B
Thu 08:58:47 AM 59.1590 -12.4790 311° West 491 565 33,000  Level FlightAware ADS-B
Thu 08:59:27 AM 59.2090 -12.5930 311° West 491 565 33,000  Level FlightAware ADS-B
Thu 09:00:17 AM 59.2720 -12.7350 311° West 491 565 33,000  Level FlightAware ADS-B
Thu 09:00:57 AM 59.3230 -12.8490 311° West 491 565 33,000  Level FlightAware ADS-B
Thu 09:01:37 AM 59.3740 -12.9640 311° West 491 565 33,000  Level FlightAware ADS-B
Thu 09:02:17 AM 59.4240 -13.0780 311° West 491 565 33,000  Level FlightAware ADS-B
Thu 09:02:57 AM 59.4750 -13.1930 311° West 491 565 33,000  Level FlightAware ADS-B
Thu 09:03:47 AM 59.5380 -13.3370 311° West 491 565 33,000  Level FlightAware ADS-B
Thu 09:04:27 AM 59.5890 -13.4520 311° West 491 565 33,000  Level FlightAware ADS-B
Thu 09:05:07 AM 59.6400 -13.5670 311° West 491 565 33,000  Level FlightAware ADS-B
Thu 09:05:47 AM 59.6900 -13.6820 311° West 491 565 33,000  Level FlightAware ADS-B
Thu 09:08:00 AM 59.8289 -14.1630 300° West  Level Estimated
Thu 09:09:00 AM 59.8909 -14.3812 300° West  Level Estimated
Thu 09:10:00 AM 59.9526 -14.6003 299° West  Level Estimated
Thu 09:11:00 AM 60.0140 -14.8202 299° West  Level Estimated
Thu 09:12:00 AM 60.0750 -15.0410 299° West  Level Estimated
Thu 09:13:00 AM 60.1356 -15.2625 299° West  Level Estimated
Thu 09:14:00 AM 60.1958 -15.4849 299° West  Level Estimated
Thu 09:15:00 AM 60.2557 -15.7081 298° West  Level Estimated
Thu 09:16:00 AM 60.3152 -15.9320 298° West  Level Estimated
Thu 09:17:00 AM 60.3743 -16.1569 298° West  Level Estimated
Thu 09:17:57 AM 60.8460 -16.6440 298° West 480 552 33,000  Level FlightAware ADS-B
Thu 09:18:00 AM 60.4330 -16.3825 298° West  Level Estimated
Thu 09:18:42 AM 60.9060 -16.8080 307° West 482 555 33,000  Level FlightAware ADS-B
Thu 09:19:22 AM 60.9600 -16.9540 307° West 483 556 33,000  Level FlightAware ADS-B
Thu 09:20:02 AM 61.0140 -17.1020 307° West 484 557 33,000  Level FlightAware ADS-B
Thu 09:20:47 AM 61.0720 -17.2650 306° West 486 559 33,000  Level FlightAware ADS-B
Thu 09:21:27 AM 61.1240 -17.4070 307° West 489 563 33,000  Level FlightAware ADS-B
Thu 09:22:12 AM 61.1880 -17.5870 306° West 490 564 33,000  Level FlightAware ADS-B
Thu 09:22:52 AM 61.2420 -17.7390 306° West 490 564 33,000  Level FlightAware ADS-B
Thu 09:23:37 AM 61.3030 -17.9140 306° West 489 563 33,000  Level FlightAware ADS-B
Thu 09:24:12 AM 61.3460 -18.0390 306° West 489 563 33,000  Level FlightAware ADS-B
Thu 09:24:57 AM 61.4070 -18.2110 307° West 489 563 33,000  Level FlightAware ADS-B
Thu 09:25:42 AM 61.4680 -18.3900 306° West 488 562 33,000  Level FlightAware ADS-B
Thu 09:26:22 AM 61.5200 -18.5440 305° West 486 559 33,000 141 Level FlightAware ADS-B
Thu 09:27:07 AM 61.5760 -18.7070 306° West 479 551 33,200 353 Climbing FlightAware ADS-B
Thu 09:27:47 AM 61.6270 -18.8580 305° West 475 547 33,500 450 Climbing FlightAware ADS-B
Thu 09:28:27 AM 61.6780 -19.0130 305° West 476 548 33,800 494 Climbing FlightAware ADS-B
Thu 09:29:12 AM 61.7350 -19.1840 305° West 476 548 34,200 565 Climbing FlightAware ADS-B
Thu 09:29:52 AM 61.7850 -19.3360 305° West 474 545 34,600 494 Climbing FlightAware ADS-B
Thu 09:30:37 AM 61.8430 -19.5110 305° West 475 547 34,900 282 Climbing FlightAware ADS-B
Thu 09:31:17 AM 61.8910 -19.6570 305° West 480 552 35,000 75 Climbing FlightAware ADS-B
Thu 09:31:57 AM 61.9410 -19.8170 304° West 481 554 35,000  Level FlightAware ADS-B
Thu 09:32:42 AM 62.0000 -19.9950 305° West 482 555 35,000  Level FlightAware ADS-B
Thu 09:33:22 AM 62.0540 -20.1460 307° West 481 554 35,000  Level FlightAware ADS-B
Thu 09:34:02 AM 62.1070 -20.2870 309° West 479 551 35,000  Level FlightAware ADS-B
Thu 09:34:47 AM 62.1680 -20.4580 307° West 476 548 35,000  Level FlightAware ADS-B
Thu 09:35:27 AM 62.2230 -20.6060 309° West 476 548 35,000  Level FlightAware ADS-B
Thu 09:36:12 AM 62.2830 -20.7740 308° West 475 547 35,000  Level FlightAware ADS-B
Thu 09:36:52 AM 62.3360 -20.9240 307° West 475 547 35,000  Level FlightAware ADS-B
Thu 09:37:37 AM 62.3960 -21.0930 308° West 476 548 35,000  Level FlightAware ADS-B
Thu 09:38:17 AM 62.4500 -21.2440 308° West 478 550 35,000  Level FlightAware ADS-B
Thu 09:38:57 AM 62.5040 -21.3970 307° West 479 551 35,000  Level FlightAware ADS-B
Thu 09:39:42 AM 62.5650 -21.5730 307° West 481 554 35,000  Level FlightAware ADS-B
Thu 09:40:22 AM 62.6180 -21.7270 307° West 481 554 35,000  Level FlightAware ADS-B
Thu 09:41:02 AM 62.6710 -21.8820 307° West 481 554 35,000  Level FlightAware ADS-B
Thu 09:41:47 AM 62.7290 -22.0530 307° West 479 551 35,000  Level FlightAware ADS-B
Thu 09:42:27 AM 62.7810 -22.2040 307° West 478 550 35,000  Level FlightAware ADS-B
Thu 09:43:12 AM 62.8420 -22.3870 306° West 477 549 35,000  Level FlightAware ADS-B
Thu 09:43:52 AM 62.8940 -22.5430 306° West 477 549 35,000  Level FlightAware ADS-B
Thu 09:44:37 AM 62.9510 -22.7140 306° West 475 547 35,000  Level FlightAware ADS-B
Thu 09:45:17 AM 63.0020 -22.8710 306° West 475 547 35,000  Level FlightAware ADS-B
Thu 09:45:57 AM 63.0530 -23.0280 306° West 473 544 35,000  Level FlightAware ADS-B
Thu 09:46:42 AM 63.1110 -23.2080 306° West 471 542 35,000  Level FlightAware ADS-B
Thu 09:47:22 AM 63.1620 -23.3640 306° West 470 541 35,000  Level FlightAware ADS-B
Thu 09:48:02 AM 63.2100 -23.5130 306° West 468 539 35,000  Level FlightAware ADS-B
Thu 09:48:47 AM 63.2660 -23.6930 305° West 466 536 35,000  Level FlightAware ADS-B
Thu 09:49:27 AM 63.3150 -23.8460 306° West 465 535 35,000  Level FlightAware ADS-B
Thu 09:50:07 AM 63.3640 -24.0070 304° West 464 534 35,000  Level FlightAware ADS-B
Thu 09:50:52 AM 63.4210 -24.1880 305° West 464 534 35,000  Level FlightAware ADS-B
Thu 09:51:32 AM 63.4670 -24.3380 305° West 465 535 35,000  Level FlightAware ADS-B
Thu 09:52:17 AM 63.5220 -24.5210 304° West 467 537 35,000  Level FlightAware ADS-B
Thu 09:52:57 AM 63.5700 -24.6770 305° West 467 537 35,000  Level FlightAware ADS-B
Thu 09:53:37 AM 63.6190 -24.8410 304° West 467 537 35,000  Level FlightAware ADS-B
Thu 09:54:22 AM 63.6730 -25.0220 304° West 467 537 35,000  Level FlightAware ADS-B
Thu 09:55:02 AM 63.7210 -25.1840 304° West 467 537 35,000  Level FlightAware ADS-B
Thu 09:55:47 AM 63.7770 -25.3710 304° West 468 539 35,000  Level FlightAware ADS-B
Thu 09:56:27 AM 63.8210 -25.5260 303° West 468 539 35,000  Level FlightAware ADS-B
Thu 09:57:12 AM 63.8760 -25.7140 304° West 468 539 35,000  Level FlightAware ADS-B
Thu 09:57:52 AM 63.9240 -25.8790 304° West 469 540 35,000  Level FlightAware ADS-B
Thu 09:58:32 AM 63.9710 -26.0450 303° West 470 541 35,000  Level FlightAware ADS-B
Thu 09:59:17 AM 64.0230 -26.2320 302° West 473 544 35,000  Level FlightAware ADS-B
Thu 09:59:57 AM 64.0710 -26.4000 303° West 473 544 35,000  Level FlightAware ADS-B
Thu 10:00:42 AM 64.1240 -26.5940 302° West 474 545 35,000  Level FlightAware ADS-B
Thu 10:01:22 AM 64.1710 -26.7630 303° West 474 545 35,000  Level FlightAware ADS-B
Thu 10:01:57 AM 64.2120 -26.9120 302° West 475 547 35,000  Level FlightAware ADS-B
Thu 10:02:37 AM 64.2570 -27.0750 302° West 477 549 35,000  Level FlightAware ADS-B
Thu 10:03:12 AM 64.2980 -27.2250 302° West 477 549 35,000  Level FlightAware ADS-B
Thu 10:03:47 AM 64.3340 -27.3650 301° West 477 549 35,000  Level FlightAware ADS-B
Thu 10:04:27 AM 64.3730 -27.5140 301° West 477 549 35,000  Level FlightAware ADS-B
Thu 10:05:17 AM 64.4210 -27.7000 301° West 477 549 35,000  Level FlightAware ADS-B
Thu 10:05:47 AM 64.4500 -27.8120 301° West 477 549 35,000  Level FlightAware ADS-B
Thu 10:06:27 AM 64.4890 -27.9610 301° West 477 549 35,000  Level FlightAware ADS-B
Thu 10:07:07 AM 64.5270 -28.1100 301° West 477 549 35,000  Level FlightAware ADS-B
Thu 10:07:57 AM 64.5760 -28.2980 301° West 477 549 35,000  Level FlightAware ADS-B
Thu 10:08:37 AM 64.6140 -28.4480 301° West 477 549 35,000  Level FlightAware ADS-B
Thu 10:09:17 AM 64.6530 -28.5980 301° West 477 549 35,000  Level FlightAware ADS-B
Thu 10:09:57 AM 64.6910 -28.7480 301° West 477 549 35,000  Level FlightAware ADS-B
Thu 10:10:37 AM 64.7300 -28.8990 301° West 477 549 35,000  Level FlightAware ADS-B
Thu 10:11:27 AM 64.7780 -29.0870 301° West 477 549 35,000  Level FlightAware ADS-B
Thu 10:12:07 AM 64.8170 -29.2380 301° West 477 549 35,000  Level FlightAware ADS-B
Thu 10:12:47 AM 64.8560 -29.3900 301° West 477 549 35,000  Level FlightAware ADS-B
Thu 10:15:00 AM 64.9276 -30.0260 285° West  Level Estimated
Thu 10:16:00 AM 64.9589 -30.3141 285° West  Level Estimated
Thu 10:17:00 AM 64.9898 -30.6028 284° West  Level Estimated
Thu 10:18:00 AM 65.0200 -30.8921 284° West  Level Estimated
Thu 10:19:00 AM 65.0498 -31.1821 284° West  Level Estimated
Thu 10:20:00 AM 65.0789 -31.4728 284° West  Level Estimated
Thu 10:21:00 AM 65.1075 -31.7641 283° West  Level Estimated
Thu 10:22:00 AM 65.1355 -32.0560 283° West  Level Estimated
Thu 10:23:00 AM 65.1630 -32.3485 283° West  Level Estimated
Thu 10:24:00 AM 65.1898 -32.6416 282° West  Level Estimated
Thu 10:25:00 AM 65.2161 -32.9353 282° West  Level Estimated
Thu 10:26:00 AM 65.2419 -33.2296 282° West  Level Estimated
Thu 10:27:00 AM 65.2670 -33.5244 282° West  Level Estimated
Thu 10:28:00 AM 65.2916 -33.8198 281° West  Level Estimated
Thu 10:29:00 AM 65.3156 -34.1158 281° West  Level Estimated
Thu 10:30:00 AM 65.3390 -34.4123 281° West  Level Estimated
Thu 10:31:00 AM 65.3619 -34.7093 281° West  Level Estimated
Thu 10:32:00 AM 65.3841 -35.0068 280° West  Level Estimated
Thu 10:33:00 AM 65.4058 -35.3048 280° West  Level Estimated
Thu 10:34:00 AM 65.4269 -35.6033 280° West  Level Estimated
Thu 10:35:00 AM 65.4474 -35.9023 279° West  Level Estimated
Thu 10:36:00 AM 65.4673 -36.2017 279° West  Level Estimated
Thu 10:37:00 AM 65.4866 -36.5016 279° West  Level Estimated
Thu 10:38:00 AM 65.5053 -36.8019 279° West  Level Estimated
Thu 10:39:00 AM 65.5234 -37.1027 278° West  Level Estimated
Thu 10:40:00 AM 65.5409 -37.4038 278° West  Level Estimated
Thu 10:41:00 AM 65.5579 -37.7054 278° West  Level Estimated
Thu 10:42:00 AM 65.5742 -38.0073 278° West  Level Estimated
Thu 10:43:00 AM 65.5899 -38.3097 277° West  Level Estimated
Thu 10:44:00 AM 65.6050 -38.6123 277° West  Level Estimated
Thu 10:45:00 AM 65.6196 -38.9153 277° West  Level Estimated
Thu 10:46:00 AM 65.6335 -39.2187 276° West  Level Estimated
Thu 10:47:00 AM 65.6468 -39.5224 276° West  Level Estimated
Thu 10:48:00 AM 65.6595 -39.8263 276° West  Level Estimated
Thu 10:49:00 AM 65.6716 -40.1306 276° West  Level Estimated
Thu 10:50:00 AM 65.6831 -40.4351 275° West  Level Estimated
Thu 10:51:00 AM 65.6940 -40.7399 275° West  Level Estimated
Thu 10:52:00 AM 65.7043 -41.0450 275° West  Level Estimated
Thu 10:53:00 AM 65.7140 -41.3503 275° West  Level Estimated
Thu 10:54:00 AM 65.7230 -41.6558 274° West  Level Estimated
Thu 10:55:00 AM 65.7315 -41.9615 274° West  Level Estimated
Thu 10:56:00 AM 65.7393 -42.2674 274° West  Level Estimated
Thu 10:57:00 AM 65.7465 -42.5735 273° West  Level Estimated
Thu 10:58:00 AM 65.7532 -42.8798 273° West  Level Estimated
Thu 10:59:00 AM 65.7591 -43.1862 273° West  Level Estimated
Thu 11:00:00 AM 65.7645 -43.4927 273° West  Level Estimated
Thu 11:01:00 AM 65.7693 -43.7994 272° West  Level Estimated
Thu 11:02:00 AM 65.7735 -44.1061 272° West  Level Estimated
Thu 11:03:00 AM 65.7770 -44.4130 272° West  Level Estimated
Thu 11:04:00 AM 65.7799 -44.7199 271° West  Level Estimated
Thu 11:05:00 AM 65.7822 -45.0269 271° West  Level Estimated
Thu 11:06:00 AM 65.7840 -45.3340 271° West  Level Estimated
Thu 11:07:00 AM 65.7850 -45.6411 271° West  Level Estimated
Thu 11:08:00 AM 65.7855 -45.9482 270° West  Level Estimated
Thu 11:09:00 AM 65.7853 -46.2553 270° West  Level Estimated
Thu 11:10:00 AM 65.7846 -46.5624 270° West  Level Estimated
Thu 11:11:00 AM 65.7832 -46.8694 270° West  Level Estimated
Thu 11:12:00 AM 65.7812 -47.1764 269° West  Level Estimated
Thu 11:13:00 AM 65.7786 -47.4834 269° West  Level Estimated
Thu 11:14:00 AM 65.7754 -47.7903 269° West  Level Estimated
Thu 11:15:00 AM 65.7715 -48.0971 268° West  Level Estimated
Thu 11:16:00 AM 65.7671 -48.4038 268° West  Level Estimated
Thu 11:17:00 AM 65.7620 -48.7104 268° West  Level Estimated
Thu 11:18:00 AM 65.7563 -49.0169 268° West  Level Estimated
Thu 11:19:00 AM 65.7500 -49.3232 267° West  Level Estimated
Thu 11:20:00 AM 65.7431 -49.6294 267° West  Level Estimated
Thu 11:21:00 AM 65.7356 -49.9354 267° West  Level Estimated
Thu 11:22:00 AM 65.7274 -50.2412 266° West  Level Estimated
Thu 11:23:00 AM 65.7187 -50.5469 266° West  Level Estimated
Thu 11:24:00 AM 65.7093 -50.8523 266° West  Level Estimated
Thu 11:25:00 AM 65.6993 -51.1575 266° West  Level Estimated
Thu 11:25:24 AM 68.0167 -53.1167 264° West 490 564 35,000  Level Edmonton Center
Thu 11:26:00 AM 65.6888 -51.4624 265° West  Level Estimated
Thu 11:26:24 AM 68.0333 -53.4833 277° West 500 575 35,000  Level Edmonton Center
Thu 11:27:00 AM 65.6776 -51.7671 265° West  Level Estimated
Thu 11:27:24 AM 68.0333 -53.8333 270° West 500 575 35,000  Level Edmonton Center
Thu 11:28:00 AM 65.6658 -52.0715 265° West  Level Estimated
Thu 11:28:24 AM 68.0500 -54.2000 277° West 500 575 35,000  Level Edmonton Center
Thu 11:29:00 AM 65.6534 -52.3756 264° West  Level Estimated
Thu 11:29:24 AM 68.0500 -54.5667 270° West 500 575 35,000  Level Edmonton Center
Thu 11:30:00 AM 65.6404 -52.6794 264° West  Level Estimated
Thu 11:30:24 AM 68.0500 -54.9333 270° West 500 575 35,000  Level Edmonton Center
Thu 11:31:00 AM 65.6268 -52.9830 264° West  Level Estimated
Thu 11:31:24 AM 68.0333 -55.2833 263° West 500 575 35,000  Level Edmonton Center
Thu 11:32:24 AM 68.0333 -55.6500 270° West 500 575 35,000  Level Edmonton Center
Thu 11:33:24 AM 68.0333 -56.0167 270° West 500 575 35,000  Level Edmonton Center
Thu 11:34:24 AM 68.0333 -56.3833 270° West 500 575 35,000  Level Edmonton Center
Thu 11:35:24 AM 68.0333 -56.7667 270° West 500 575 35,000  Level Edmonton Center
Thu 11:36:24 AM 68.0333 -57.1333 270° West 500 575 35,000  Level Edmonton Center
Thu 11:37:24 AM 68.0167 -57.4667 263° West 500 575 35,000  Level Edmonton Center
Thu 11:38:24 AM 68.0167 -57.8500 270° West 500 575 35,000  Level Edmonton Center
Thu 11:39:24 AM 68.0000 -58.2167 263° West 490 564 35,000  Level Edmonton Center
Thu 11:40:24 AM 68.0167 -58.5500 278° West 490 564 35,000  Level Edmonton Center
Thu 11:41:24 AM 68.0000 -58.9000 263° West 490 564 35,000  Level Edmonton Center
Thu 11:42:24 AM 67.9833 -59.2667 263° West 490 564 35,000  Level Edmonton Center
Thu 11:43:24 AM 67.9833 -59.6333 270° West 500 575 35,000  Level Edmonton Center
Thu 11:44:24 AM 67.9667 -60.0000 263° West 490 564 35,000  Level Edmonton Center
Thu 11:45:24 AM 67.9667 -60.3500 270° West 490 564 35,000  Level Edmonton Center
Thu 11:46:24 AM 67.9667 -60.7167 270° West 490 564 35,000 200 Level Edmonton Center
Thu 11:47:24 AM 67.9500 -61.0833 263° West 490 564 35,400 500 Climbing Edmonton Center
Thu 11:48:24 AM 67.9333 -61.4000 262° West 490 564 36,000 300 Climbing Edmonton Center
Thu 11:49:24 AM 67.9167 -61.7667 263° West 490 564 36,000  Level Edmonton Center
Thu 11:50:24 AM 67.9167 -62.1333 270° West 490 564 36,000  Level Edmonton Center
Thu 11:51:24 AM 67.9000 -62.4833 263° West 490 564 36,000  Level Edmonton Center
Thu 11:52:24 AM 67.9000 -62.8500 270° West 490 564 36,000  Level Edmonton Center
Thu 11:53:24 AM 67.8667 -63.2167 257° West 490 564 36,000  Level Edmonton Center
Thu 11:54:24 AM 67.8667 -63.5667 270° West 490 564 36,000  Level Edmonton Center
Thu 11:55:24 AM 67.8500 -63.9333 263° West 490 564 36,000  Level Edmonton Center
Thu 11:56:24 AM 67.8500 -64.2667 270° West 490 564 36,000  Level Edmonton Center
Thu 11:57:24 AM 67.8167 -64.6000 255° West 490 564 36,000  Level Edmonton Center
Thu 11:58:24 AM 67.8000 -64.9667 263° West 490 564 36,000  Level Edmonton Center
Thu 11:59:24 AM 67.7833 -65.3167 263° West 490 564 36,000  Level Edmonton Center
Thu 12:00:24 PM 67.7667 -65.6833 263° West 490 564 36,000  Level Edmonton Center
Thu 12:01:24 PM 67.7333 -66.0333 256° West 490 564 36,000  Level Edmonton Center
Thu 12:02:24 PM 67.7333 -66.3833 270° West 480 552 36,000  Level Edmonton Center
Thu 12:03:24 PM 67.7000 -66.7500 257° West 480 552 36,000  Level Edmonton Center
Thu 12:04:24 PM 67.7000 -67.0833 270° West 480 552 36,000  Level Edmonton Center
Thu 12:05:24 PM 67.6667 -67.4167 255° West 490 564 36,000  Level Edmonton Center
Thu 12:06:24 PM 67.6333 -67.7667 256° West 490 564 36,000  Level Edmonton Center
Thu 12:07:24 PM 67.6167 -68.1167 263° West 490 564 36,000  Level Edmonton Center
Thu 12:08:24 PM 67.5833 -68.4667 256° West 480 552 36,000  Level Edmonton Center
Thu 12:09:24 PM 67.5667 -68.8167 263° West 480 552 36,000  Level Edmonton Center
Thu 12:10:24 PM 67.5500 -69.1667 263° West 480 552 36,000  Level Edmonton Center
Thu 12:11:24 PM 67.5000 -69.5000 249° West 480 552 36,000  Level Edmonton Center
Thu 12:12:24 PM 67.4833 -69.8333 263° West 480 552 36,000  Level Edmonton Center
Thu 12:13:24 PM 67.4500 -70.1833 256° West 480 552 36,000  Level Edmonton Center
Thu 12:14:24 PM 67.4167 -70.5000 255° West 480 552 36,000  Level Edmonton Center
Thu 12:15:24 PM 67.3667 -70.8333 249° West 480 552 36,000  Level Edmonton Center
Thu 12:16:24 PM 67.3333 -71.1833 256° West 490 564 36,000  Level Edmonton Center
Thu 12:17:24 PM 67.2833 -71.5000 248° West 490 564 36,000  Level Edmonton Center
Thu 12:18:24 PM 67.2500 -71.8500 256° West 490 564 36,000  Level Edmonton Center
Thu 12:19:24 PM 67.2000 -72.1667 248° West 480 552 36,000  Level Edmonton Center
Thu 12:20:24 PM 67.1667 -72.5167 256° West 490 564 36,000  Level Edmonton Center
Thu 12:21:24 PM 67.1167 -72.8333 248° West 490 564 36,000  Level Edmonton Center
Thu 12:22:24 PM 67.0833 -73.1833 256° West 490 564 36,000  Level Edmonton Center
Thu 12:23:24 PM 67.0333 -73.4833 247° West 490 564 36,000  Level Edmonton Center
Thu 12:24:24 PM 66.9833 -73.8000 248° West 480 552 36,000  Level Edmonton Center
Thu 12:25:24 PM 66.9500 -74.1500 256° West 480 552 36,000  Level Edmonton Center
Thu 12:26:24 PM 66.9000 -74.4500 247° West 480 552 36,000  Level Edmonton Center
Thu 12:27:24 PM 66.8500 -74.8000 250° West 480 552 36,000  Level Edmonton Center
Thu 12:28:24 PM 66.8000 -75.1000 247° West 480 552 36,000  Level Edmonton Center
Thu 12:29:24 PM 66.7500 -75.4333 249° West 480 552 36,000  Level Edmonton Center
Thu 12:30:24 PM 66.7000 -75.7333 247° West 490 564 36,000  Level Edmonton Center
Thu 12:31:24 PM 66.6500 -76.0333 247° West 490 564 36,000  Level Edmonton Center
Thu 12:32:24 PM 66.6000 -76.3833 250° West 480 552 36,000  Level Edmonton Center
Thu 12:33:24 PM 66.5500 -76.6833 247° West 480 552 36,000  Level Edmonton Center
Thu 12:34:24 PM 66.5000 -77.0167 250° West 480 552 36,000  Level Edmonton Center
Thu 12:35:24 PM 66.4667 -77.2833 253° West 480 552 36,000  Level Edmonton Center
Thu 12:36:34 PM 66.4000 -77.6333 245° Southwest 470 541 36,000  Level Edmonton Center
Thu 12:37:34 PM 66.3500 -77.9667 250° West 480 552 36,000  Level Edmonton Center
Thu 12:38:34 PM 66.2833 -78.2667 241° Southwest 470 541 36,000  Level Edmonton Center
Thu 12:39:34 PM 66.2333 -78.5500 246° West 480 552 36,000  Level Edmonton Center
Thu 12:40:34 PM 66.1833 -78.8833 250° West 470 541 36,000  Level Edmonton Center
Thu 12:41:34 PM 66.1167 -79.1667 240° Southwest 480 552 36,000  Level Edmonton Center
Thu 12:42:34 PM 66.0667 -79.4667 248° West 480 552 36,000  Level Edmonton Center
Thu 12:43:34 PM 66.0000 -79.7833 243° Southwest 480 552 36,000  Level Edmonton Center
Thu 12:44:34 PM 65.9333 -80.0333 237° Southwest 470 541 36,000  Level Edmonton Center
Thu 12:45:34 PM 65.8667 -80.3333 242° Southwest 480 552 36,000  Level Edmonton Center
Thu 12:46:34 PM 65.8000 -80.5667 235° Southwest 480 552 36,000  Level Edmonton Center
Thu 12:47:34 PM 65.7167 -80.8667 236° Southwest 480 552 36,000  Level Edmonton Center
Thu 12:48:34 PM 65.6333 -81.1167 231° Southwest 490 564 36,000  Level Edmonton Center
Thu 12:49:34 PM 65.5500 -81.3833 233° Southwest 490 564 36,000  Level Edmonton Center
Thu 12:50:34 PM 65.4833 -81.6500 239° Southwest 480 552 36,000  Level Edmonton Center
Thu 12:51:34 PM 65.4000 -81.9000 231° Southwest 480 552 36,000  Level Edmonton Center
Thu 12:52:34 PM 65.3167 -82.2000 236° Southwest 480 552 36,000  Level Edmonton Center
Thu 12:53:34 PM 65.2500 -82.4333 236° Southwest 480 552 36,000  Level Edmonton Center
Thu 12:54:34 PM 65.1500 -82.6667 224° Southwest 480 552 36,000  Level Edmonton Center
Thu 12:55:34 PM 65.0667 -82.9500 235° Southwest 480 552 36,000  Level Edmonton Center
Thu 12:56:34 PM 65.0000 -83.1833 236° Southwest 480 552 36,000  Level Edmonton Center
Thu 12:57:34 PM 64.9167 -83.4667 235° Southwest 480 552 36,000  Level Edmonton Center
Thu 12:58:34 PM 64.8500 -83.7000 236° Southwest 480 552 36,000  Level Edmonton Center
Thu 12:59:34 PM 64.7500 -83.9333 225° Southwest 480 552 36,000  Level Edmonton Center
Thu 01:00:34 PM 64.6667 -84.2000 234° Southwest 480 552 36,000  Level Edmonton Center
Thu 01:01:34 PM 64.6000 -84.4333 236° Southwest 470 541 36,000  Level Edmonton Center
Thu 01:02:34 PM 64.5000 -84.6667 225° Southwest 470 541 36,000  Level Edmonton Center
Thu 01:03:34 PM 64.4333 -84.9167 238° Southwest 470 541 36,000  Level Edmonton Center
Thu 01:04:34 PM 64.3500 -85.1500 231° Southwest 470 541 36,000  Level Edmonton Center
Thu 01:05:34 PM 64.2500 -85.4167 229° Southwest 480 552 36,000  Level Edmonton Center
Thu 01:06:34 PM 64.1833 -85.6333 235° Southwest 480 552 36,000  Level Edmonton Center
Thu 01:07:34 PM 64.0833 -85.8667 226° Southwest 470 541 36,000  Level Edmonton Center
Thu 01:08:34 PM 64.0167 -86.1167 239° Southwest 470 541 36,000  Level Edmonton Center
Thu 01:09:34 PM 63.9167 -86.3333 224° Southwest 470 541 36,000  Level Edmonton Center
Thu 01:10:34 PM 63.8500 -86.5500 235° Southwest 470 541 36,000  Level Edmonton Center
Thu 01:11:34 PM 63.7500 -86.8000 228° Southwest 470 541 36,000  Level Edmonton Center
Thu 01:12:34 PM 63.6500 -87.0333 226° Southwest 470 541 36,000  Level Edmonton Center
Thu 01:13:34 PM 63.5833 -87.2333 233° Southwest 470 541 36,000  Level Edmonton Center
Thu 01:14:34 PM 63.4833 -87.4833 228° Southwest 470 541 36,000  Level Edmonton Center
Thu 01:15:34 PM 63.4167 -87.7000 236° Southwest 470 541 36,000  Level Edmonton Center
Thu 01:16:34 PM 63.3167 -87.9167 224° Southwest 470 541 36,000  Level Edmonton Center
Thu 01:17:34 PM 63.2333 -88.1500 232° Southwest 470 541 36,000  Level Edmonton Center
Thu 01:18:34 PM 63.1333 -88.3667 224° Southwest 470 541 36,000  Level Edmonton Center
Thu 01:19:34 PM 63.0500 -88.5667 227° Southwest 470 541 36,000  Level Edmonton Center
Thu 01:20:34 PM 62.9667 -88.8000 232° Southwest 470 541 36,000  Level Edmonton Center
Thu 01:21:34 PM 62.8667 -89.0167 225° Southwest 470 541 36,000 100 Level Edmonton Center
Thu 01:22:34 PM 62.7833 -89.2500 232° Southwest 470 541 36,200 550 Climbing Edmonton Center
Thu 01:23:34 PM 62.6833 -89.4500 223° Southwest 470 541 37,100 800 Climbing Edmonton Center
Thu 01:24:34 PM 62.6000 -89.6500 228° Southwest 470 541 37,800 450 Climbing Edmonton Center
Thu 01:25:34 PM 62.5167 -89.8833 232° Southwest 480 552 38,000 100 Climbing Edmonton Center
Thu 01:26:34 PM 62.4167 -90.0833 223° Southwest 480 552 38,000  Level Edmonton Center
Thu 01:27:34 PM 62.3167 -90.2833 223° Southwest 480 552 38,000  Level Edmonton Center
Thu 01:28:34 PM 62.2167 -90.4833 223° Southwest 480 552 38,000  Level Edmonton Center
Thu 01:29:34 PM 62.1000 -90.6500 214° Southwest 480 552 38,000  Level Edmonton Center
Thu 01:30:34 PM 62.0000 -90.8333 221° Southwest 480 552 38,000  Level Edmonton Center
Thu 01:31:34 PM 61.9000 -91.0333 223° Southwest 480 552 38,000  Level Edmonton Center
Thu 01:32:34 PM 61.8167 -91.2167 226° Southwest 480 552 38,000  Level Edmonton Center
Thu 01:33:34 PM 61.7000 -91.4167 219° Southwest 480 552 38,000  Level Edmonton Center
Thu 01:34:34 PM 61.6167 -91.6000 226° Southwest 480 552 38,000  Level Edmonton Center
Thu 01:35:34 PM 61.5167 -91.7833 221° Southwest 480 552 38,000  Level Edmonton Center
Thu 01:36:34 PM 61.4167 -91.9833 224° Southwest 480 552 38,000  Level Edmonton Center
Thu 01:37:34 PM 61.3167 -92.1667 221° Southwest 480 552 38,000  Level Edmonton Center
Thu 01:38:34 PM 61.2000 -92.3500 217° Southwest 480 552 38,000  Level Edmonton Center
Thu 01:39:34 PM 61.1000 -92.5333 222° Southwest 480 552 38,000  Level Edmonton Center
Thu 01:40:34 PM 61.0000 -92.6833 216° Southwest 480 552 38,000  Level Edmonton Center
Thu 01:41:34 PM 60.8833 -92.8667 217° Southwest 480 552 38,000  Level Edmonton Center
Thu 01:42:34 PM 60.8000 -93.0333 224° Southwest 480 552 38,000  Level Edmonton Center
Thu 01:43:34 PM 60.6833 -93.2167 218° Southwest 460 529 38,000  Level Edmonton Center
Thu 01:44:34 PM 60.5833 -93.4000 222° Southwest 480 552 38,000  Level Edmonton Center
Thu 01:45:34 PM 60.4667 -93.5833 218° Southwest 480 552 38,000  Level Edmonton Center
Thu 01:46:34 PM 60.3667 -93.7500 220° Southwest 480 552 38,000  Level Edmonton Center
Thu 01:47:34 PM 60.2833 -93.9333 228° Southwest 480 552 38,000  Level Edmonton Center
Thu 01:48:34 PM 60.1667 -94.1000 215° Southwest 480 552 38,000  Level Edmonton Center
Thu 01:49:34 PM 60.0667 -94.2667 220° Southwest 480 552 38,000  Level Edmonton Center
Thu 01:50:34 PM 59.9667 -94.4500 223° Southwest 480 552 38,000  Level Edmonton Center
Thu 01:51:34 PM 59.8500 -94.6167 216° Southwest 480 552 38,000  Level Edmonton Center
Thu 01:52:34 PM 59.7500 -94.7833 220° Southwest 480 552 38,000  Level Edmonton Center
Thu 01:53:34 PM 59.6500 -94.9500 220° Southwest 480 552 38,000  Level Edmonton Center
Thu 01:54:34 PM 59.5333 -95.1167 216° Southwest 480 552 38,000  Level Edmonton Center
Thu 01:55:34 PM 59.4333 -95.2833 220° Southwest 480 552 38,000  Level Edmonton Center
Thu 01:56:34 PM 59.3167 -95.4500 216° Southwest 480 552 38,000  Level Edmonton Center
Thu 01:57:34 PM 59.2167 -95.5833 214° Southwest 480 552 38,000  Level Edmonton Center
Thu 01:58:34 PM 59.1000 -95.7500 216° Southwest 480 552 38,000  Level Edmonton Center
Thu 01:59:34 PM 59.0000 -95.9167 221° Southwest 480 552 38,000  Level Edmonton Center
Thu 02:00:34 PM 58.9000 -96.0667 218° Southwest 480 552 38,000  Level Edmonton Center
Thu 02:01:34 PM 58.8000 -96.2333 221° Southwest 480 552 38,000  Level Edmonton Center
Thu 02:02:34 PM 58.6833 -96.3833 214° Southwest 480 552 38,000  Level Edmonton Center
Thu 02:03:34 PM 58.5833 -96.5500 221° Southwest 480 552 38,000  Level Edmonton Center
Thu 02:04:34 PM 58.4667 -96.7000 214° Southwest 480 552 38,000  Level Edmonton Center
Thu 02:05:34 PM 58.3500 -96.8500 214° Southwest 480 552 38,000  Level Edmonton Center
Thu 02:06:34 PM 58.2500 -97.0167 221° Southwest 480 552 38,000  Level Edmonton Center
Thu 02:07:34 PM 58.1333 -97.1667 214° Southwest 480 552 38,000  Level Edmonton Center
Thu 02:08:34 PM 58.0333 -97.3167 218° Southwest 480 552 38,000  Level Edmonton Center
Thu 02:09:32 PM 57.9500 -97.5000 229° Southwest 490 564 38,000  Level Winnipeg Center
Thu 02:10:32 PM 57.8167 -97.6500 211° Southwest 490 564 38,000  Level Winnipeg Center
Thu 02:11:32 PM 57.7167 -97.8000 219° Southwest 490 564 38,000  Level Winnipeg Center
Thu 02:12:32 PM 57.6000 -97.9667 217° Southwest 480 552 38,000  Level Winnipeg Center
Thu 02:13:32 PM 57.5000 -98.0833 212° Southwest 490 564 38,000  Level Winnipeg Center
Thu 02:14:32 PM 57.3833 -98.2333 215° Southwest 480 552 38,000  Level Winnipeg Center
Thu 02:15:32 PM 57.2833 -98.3833 219° Southwest 480 552 38,000  Level Winnipeg Center
Thu 02:16:32 PM 57.1667 -98.5333 215° Southwest 480 552 38,000  Level Winnipeg Center
Thu 02:17:32 PM 57.0667 -98.6833 219° Southwest 480 552 38,000  Level Winnipeg Center
Thu 02:18:32 PM 56.9667 -98.8000 212° Southwest 480 552 38,000  Level Winnipeg Center
Thu 02:19:32 PM 56.8500 -98.9500 215° Southwest 480 552 38,000  Level Winnipeg Center
Thu 02:20:32 PM 56.7333 -99.1000 215° Southwest 480 552 38,000  Level Winnipeg Center
Thu 02:21:32 PM 56.6167 -99.2333 212° Southwest 480 552 38,000  Level Winnipeg Center
Thu 02:22:32 PM 56.5167 -99.3500 213° Southwest 480 552 38,000  Level Winnipeg Center
Thu 02:23:32 PM 56.4000 -99.5000 215° Southwest 480 552 38,000  Level Winnipeg Center
Thu 02:24:32 PM 56.3000 -99.6500 220° Southwest 480 552 38,000  Level Winnipeg Center
Thu 02:25:32 PM 56.1667 -99.7833 209° Southwest 480 552 38,000  Level Winnipeg Center
Thu 02:26:32 PM 56.0667 -99.9333 220° Southwest 480 552 38,000  Level Winnipeg Center
Thu 02:27:32 PM 55.9500 -100.0333 206° Southwest 480 552 38,000  Level Winnipeg Center
Thu 02:28:32 PM 55.8333 -100.1833 216° Southwest 490 564 38,000  Level Winnipeg Center
Thu 02:29:32 PM 55.7333 -100.2833 209° Southwest 490 564 38,000  Level Winnipeg Center
Thu 02:30:32 PM 55.5833 -100.4000 204° Southwest 490 564 38,000  Level Winnipeg Center
Thu 02:31:32 PM 55.4833 -100.5000 210° Southwest 490 564 38,000  Level Winnipeg Center
Thu 02:37:27 PM 54.7890 -101.2040 210° Southwest 38,000  Level FlightAware ADS-B
Thu 02:37:47 PM 54.7490 -101.2420 209° Southwest 494 568 38,000  Level FlightAware ADS-B
Thu 02:38:37 PM 54.6470 -101.3420 210° Southwest 494 568 38,000  Level FlightAware ADS-B
Thu 02:39:12 PM 54.5860 -101.4000 209° Southwest 494 568 38,000  Level FlightAware ADS-B
Thu 02:40:02 PM 54.4770 -101.5030 209° Southwest 495 570 38,000  Level FlightAware ADS-B
Thu 02:40:42 PM 54.3920 -101.5820 208° Southwest 494 568 38,000  Level FlightAware ADS-B
Thu 02:41:27 PM 54.3030 -101.6640 208° Southwest 493 567 38,000  Level FlightAware ADS-B
Thu 02:42:22 PM 54.1960 -101.7650 209° Southwest 490 564 38,000  Level FlightAware ADS-B
Thu 02:43:02 PM 54.1140 -101.8420 209° Southwest 488 562 38,000  Level FlightAware ADS-B
Thu 02:44:07 PM 53.9930 -101.9530 208° Southwest 483 556 38,000  Level FlightAware ADS-B
Thu 02:45:07 PM 53.8680 -102.0660 208° Southwest 484 557 38,000  Level FlightAware ADS-B
Thu 02:46:07 PM 53.7560 -102.1690 209° Southwest 485 558 38,000  Level FlightAware ADS-B
Thu 02:46:47 PM 53.6780 -102.2400 208° Southwest 485 558 38,000  Level FlightAware ADS-B
Thu 02:47:32 PM 53.5900 -102.3180 208° Southwest 487 560 38,000  Level FlightAware ADS-B
Thu 02:48:07 PM 53.5220 -102.3810 209° Southwest 489 563 38,000  Level FlightAware ADS-B
Thu 02:49:07 PM 53.3930 -102.4950 208° Southwest 491 565 38,000  Level FlightAware ADS-B
Thu 02:49:47 PM 53.3240 -102.5560 208° Southwest 492 566 38,000  Level FlightAware ADS-B
Thu 02:50:32 PM 53.2270 -102.6430 208° Southwest 492 566 38,000  Level FlightAware ADS-B
Thu 02:51:12 PM 53.1470 -102.7140 208° Southwest 492 566 38,000  Level FlightAware ADS-B
Thu 02:51:52 PM 53.1420 -102.7190 211° Southwest 492 566 38,000  Level FlightAware ADS-B
Thu 02:52:32 PM 53.0730 -102.7790 208° Southwest 492 566 38,000  Level FlightAware ADS-B
Thu 02:53:22 PM 52.9880 -102.8550 208° Southwest 492 566 38,000  Level FlightAware ADS-B
Thu 02:54:02 PM 52.9190 -102.9150 208° Southwest 492 566 38,000  Level FlightAware ADS-B
Thu 02:54:42 PM 52.8510 -102.9750 208° Southwest 492 566 38,000  Level FlightAware ADS-B
Thu 02:55:22 PM 52.7830 -103.0350 208° Southwest 492 566 38,000  Level FlightAware ADS-B
Thu 02:56:02 PM 52.7140 -103.0950 208° Southwest 492 566 38,000  Level FlightAware ADS-B
Thu 02:56:52 PM 52.6290 -103.1700 208° Southwest 492 566 38,000  Level FlightAware ADS-B
Thu 02:57:32 PM 52.5610 -103.2300 208° Southwest 492 566 38,000  Level FlightAware ADS-B
Thu 02:58:12 PM 52.4920 -103.2900 208° Southwest 492 566 38,000  Level FlightAware ADS-B
Thu 02:58:52 PM 52.4240 -103.3490 208° Southwest 492 566 38,000  Level FlightAware ADS-B
Thu 02:59:32 PM 52.3560 -103.4090 208° Southwest 492 566 38,000  Level FlightAware ADS-B
Thu 03:00:22 PM 52.2700 -103.4830 208° Southwest 492 566 38,000  Level FlightAware ADS-B
Thu 03:01:02 PM 52.0100 -103.7710 214° Southwest 490 564 38,000  Level FlightAware ADS-B
Thu 03:01:37 PM 51.9450 -103.8290 209° Southwest 489 563 38,000  Level FlightAware ADS-B
Thu 03:02:22 PM 51.8630 -103.9030 209° Southwest 489 563 38,000  Level FlightAware ADS-B
Thu 03:03:17 PM 51.7440 -104.0090 209° Southwest 490 564 38,000  Level FlightAware ADS-B
Thu 03:04:02 PM 51.6440 -104.0980 209° Southwest 487 560 38,000  Level FlightAware ADS-B
Thu 03:05:02 PM 51.5420 -104.1860 208° Southwest 487 560 38,000  Level FlightAware ADS-B
Thu 03:05:37 PM 51.4630 -104.2580 210° Southwest 482 555 38,000  Level FlightAware ADS-B
Thu 03:06:22 PM 51.3820 -104.3280 208° Southwest 481 554 38,000  Level FlightAware ADS-B
Thu 03:07:07 PM 51.2930 -104.4060 209° Southwest 480 552 38,000  Level FlightAware ADS-B
Thu 03:07:47 PM 51.2100 -104.4790 209° Southwest 480 552 38,000  Level FlightAware ADS-B
Thu 03:08:22 PM 51.1440 -104.5360 208° Southwest 480 552 38,000  Level FlightAware ADS-B
Thu 03:09:12 PM 51.0490 -104.6190 209° Southwest 479 551 38,000  Level FlightAware ADS-B
Thu 03:09:52 PM 50.9680 -104.6880 208° Southwest 481 554 38,000  Level FlightAware ADS-B
Thu 03:10:37 PM 50.8780 -104.7650 208° Southwest 482 555 38,000  Level FlightAware ADS-B
Thu 03:11:17 PM 50.8050 -104.8270 208° Southwest 485 558 38,000  Level FlightAware ADS-B
Thu 03:11:57 PM 50.7260 -104.8940 208° Southwest 486 559 38,000  Level FlightAware ADS-B
Thu 03:12:32 PM 50.6530 -104.9560 208° Southwest 489 563 38,000  Level FlightAware ADS-B
Thu 03:13:17 PM 50.5750 -105.0220 208° Southwest 489 563 38,000  Level FlightAware ADS-B
Thu 03:14:02 PM 50.4800 -105.1000 208° Southwest 488 562 38,000  Level FlightAware ADS-B
Thu 03:14:42 PM 50.3970 -105.1700 208° Southwest 490 564 38,000  Level FlightAware ADS-B
Thu 03:15:32 PM 50.2930 -105.2570 208° Southwest 490 564 38,000  Level FlightAware ADS-B
Thu 03:16:12 PM 50.2050 -105.3300 208° Southwest 491 565 38,000  Level FlightAware ADS-B
Thu 03:16:52 PM 50.1360 -105.3860 207° Southwest 492 566 38,000  Level FlightAware ADS-B
Thu 03:17:32 PM 50.0570 -105.4520 208° Southwest 492 566 38,000  Level FlightAware ADS-B
Thu 03:18:12 PM 49.9750 -105.5180 207° Southwest 492 566 38,000  Level FlightAware ADS-B
Thu 03:18:57 PM 49.8940 -105.5840 208° Southwest 492 566 38,000  Level FlightAware ADS-B
Thu 03:19:37 PM 49.8100 -105.6520 208° Southwest 492 566 38,000  Level FlightAware ADS-B
Thu 03:20:37 PM 49.6920 -105.7490 208° Southwest 492 566 38,000  Level FlightAware ADS-B
Thu 03:21:17 PM 49.6070 -105.8170 207° Southwest 491 565 38,000  Level FlightAware ADS-B
Thu 03:21:57 PM 49.5240 -105.8830 207° Southwest 492 566 38,000  Level FlightAware ADS-B
Thu 03:22:42 PM 49.4310 -105.9570 207° Southwest 493 567 38,000  Level FlightAware ADS-B
Thu 03:23:22 PM 49.3570 -106.0170 208° Southwest 492 566 38,000  Level FlightAware ADS-B
Thu 03:24:02 PM 49.2760 -106.0810 207° Southwest 492 566 38,000  Level FlightAware ADS-B
Thu 03:24:42 PM 49.2080 -106.1350 207° Southwest 492 566 38,000  Level FlightAware ADS-B
Thu 03:25:27 PM 49.1070 -106.2130 207° Southwest 492 566 38,000  Level FlightAware ADS-B
Thu 03:26:12 PM 49.0280 -106.2750 207° Southwest 492 566 38,000  Level FlightAware ADS-B
Thu 03:26:52 PM 48.9590 -106.3280 207° Southwest 492 566 38,000  Level FlightAware ADS-B
Thu 03:27:32 PM 48.8900 -106.3820 207° Southwest 492 566 38,000  Level FlightAware ADS-B
Thu 03:28:22 PM 48.8040 -106.4480 207° Southwest 492 566 38,000  Level FlightAware ADS-B
Thu 03:29:02 PM 48.7350 -106.5020 207° Southwest 492 566 38,000  Level FlightAware ADS-B
Thu 03:29:42 PM 48.6660 -106.5550 207° Southwest 492 566 38,000  Level FlightAware ADS-B
Thu 03:30:22 PM 48.5970 -106.6080 207° Southwest 492 566 38,000  Level FlightAware ADS-B
Thu 03:31:02 PM 48.5280 -106.6610 207° Southwest 492 566 38,000  Level FlightAware ADS-B
Thu 03:31:52 PM 48.4420 -106.7270 207° Southwest 492 566 38,000  Level FlightAware ADS-B
Thu 03:32:32 PM 48.3730 -106.7800 207° Southwest 492 566 38,000  Level FlightAware ADS-B
Thu 03:33:12 PM 48.3040 -106.8330 207° Southwest 492 566 38,000  Level FlightAware ADS-B
Thu 03:33:52 PM 48.2350 -106.8860 207° Southwest 492 566 38,000  Level FlightAware ADS-B
Thu 03:34:32 PM 48.1660 -106.9390 207° Southwest 492 566 38,000  Level FlightAware ADS-B
Thu 03:35:12 PM 48.0970 -106.9910 207° Southwest 492 566 38,000  Level FlightAware ADS-B
Thu 03:35:32 PM 47.8333 -107.2167 207° Southwest 490 564 38,000  Level Winnipeg Center
Thu 03:36:24 PM 47.7700 -107.2539 202° Southwest 486 559 38,000  Level Salt Lake Center
Thu 03:37:26 PM 47.6286 -107.3686 209° Southwest 485 558 38,000  Level Salt Lake Center
Thu 03:38:28 PM 47.5150 -107.4625 209° Southwest 481 554 38,000  Level Salt Lake Center
Thu 03:39:30 PM 47.3961 -107.5600 209° Southwest 483 556 38,000 195 Level Salt Lake Center
Thu 03:40:31 PM 47.2647 -107.6672 209° Southwest 483 556 38,400 439 Climbing Salt Lake Center
Thu 03:41:33 PM 47.1533 -107.7603 210° Southwest 482 555 38,900 290 Climbing Salt Lake Center
Thu 03:42:35 PM 47.0375 -107.8433 206° Southwest 483 556 39,000 32 Climbing Salt Lake Center
Thu 03:44:38 PM 46.7778 -108.0128 204° Southwest 493 567 39,000  Level Salt Lake Center
Thu 03:45:40 PM 46.6375 -108.0981 203° Southwest 490 564 39,000  Level Salt Lake Center
Thu 03:46:42 PM 46.5183 -108.1761 204° Southwest 492 566 39,000  Level Salt Lake Center
Thu 03:47:43 PM 46.3794 -108.2653 204° Southwest 489 563 39,000  Level Salt Lake Center
Thu 03:48:45 PM 46.2597 -108.3408 204° Southwest 490 564 39,000  Level Salt Lake Center
Thu 03:49:47 PM 46.1411 -108.4161 204° Southwest 488 562 39,000  Level Salt Lake Center
Thu 03:50:48 PM 46.0014 -108.5042 204° Southwest 491 565 39,000  Level Salt Lake Center
Thu 03:51:50 PM 45.8819 -108.5808 204° Southwest 492 566 39,000  Level Salt Lake Center
Thu 03:52:52 PM 45.7392 -108.6689 203° Southwest 500 575 39,000  Level Salt Lake Center
Thu 03:53:53 PM 45.6203 -108.7419 203° Southwest 490 564 39,000  Level Salt Lake Center
Thu 03:54:55 PM 45.4806 -108.8289 204° Southwest 491 565 39,000  Level Salt Lake Center
Thu 03:55:57 PM 45.3608 -108.9025 203° Southwest 491 565 39,000  Level Salt Lake Center
Thu 03:56:58 PM 45.2206 -108.9883 203° Southwest 494 568 39,000  Level Salt Lake Center
Thu 03:58:00 PM 45.1003 -109.0617 203° Southwest 493 567 39,000  Level Salt Lake Center
Thu 03:59:02 PM 44.9611 -109.1444 203° Southwest 489 563 39,000  Level Salt Lake Center
Thu 04:00:03 PM 44.8406 -109.2186 204° Southwest 492 566 39,000  Level Salt Lake Center
Thu 04:01:05 PM 44.7172 -109.2908 203° Southwest 497 572 39,000  Level Salt Lake Center
Thu 04:02:07 PM 44.5764 -109.3753 203° Southwest 496 571 39,000  Level Salt Lake Center
Thu 04:03:08 PM 44.4558 -109.4469 203° Southwest 494 568 39,000  Level Salt Lake Center
Thu 04:04:10 PM 44.3122 -109.5314 203° Southwest 491 565 39,000  Level Salt Lake Center
Thu 04:05:12 PM 44.1922 -109.6017 203° Southwest 488 562 39,000  Level Salt Lake Center
Thu 04:06:13 PM 44.0714 -109.6717 203° Southwest 489 563 39,000  Level Salt Lake Center
Thu 04:07:15 PM 43.9314 -109.7539 203° Southwest 489 563 39,000  Level Salt Lake Center
Thu 04:08:17 PM 43.8106 -109.8225 202° Southwest 488 562 39,000  Level Salt Lake Center
Thu 04:09:18 PM 43.6703 -109.9039 203° Southwest 489 563 39,000  Level Salt Lake Center
Thu 04:10:20 PM 43.5494 -109.9728 202° Southwest 489 563 39,000  Level Salt Lake Center
Thu 04:11:22 PM 43.4244 -110.0467 203° Southwest 485 558 39,000  Level Salt Lake Center
Thu 04:12:24 PM 43.2881 -110.1353 205° Southwest 487 560 39,000  Level Salt Lake Center
Thu 04:13:25 PM 43.1758 -110.2086 205° Southwest 488 562 39,000  Level Salt Lake Center
Thu 04:14:27 PM 43.0383 -110.2958 205° Southwest 487 560 39,000  Level Salt Lake Center
Thu 04:15:29 PM 42.9161 -110.3697 204° Southwest 483 556 39,000  Level Salt Lake Center
Thu 04:16:30 PM 42.7981 -110.4422 204° Southwest 485 558 39,000  Level Salt Lake Center
Thu 04:17:32 PM 42.6617 -110.5269 205° Southwest 485 558 39,000  Level Salt Lake Center
Thu 04:18:34 PM 42.5439 -110.5997 204° Southwest 485 558 39,000  Level Salt Lake Center
Thu 04:19:35 PM 42.4053 -110.6847 204° Southwest 490 564 39,000  Level Salt Lake Center
Thu 04:20:37 PM 42.2864 -110.7581 205° Southwest 491 565 39,000  Level Salt Lake Center
Thu 04:21:39 PM 42.1475 -110.8419 204° Southwest 490 564 39,000  Level Salt Lake Center
Thu 04:22:40 PM 42.0278 -110.9131 204° Southwest 491 565 39,000  Level Salt Lake Center
Thu 04:23:42 PM 41.9131 -110.9839 205° Southwest 489 563 39,000  Level Salt Lake Center
Thu 04:29:32 PM 41.1670 -111.4240 205° Southwest 496 571 39,000  Level FlightAware ADS-B
Thu 04:30:12 PM 41.0790 -111.4760 204° Southwest 497 572 39,000  Level FlightAware ADS-B
Thu 04:30:47 PM 41.0060 -111.5190 204° Southwest 497 572 39,000  Level FlightAware ADS-B
Thu 04:31:32 PM 40.9090 -111.5750 204° Southwest 498 573 39,000  Level FlightAware ADS-B
Thu 04:32:17 PM 40.8170 -111.6280 204° Southwest 499 574 39,000  Level FlightAware ADS-B
Thu 04:32:57 PM 40.7320 -111.6770 204° Southwest 497 572 39,000  Level FlightAware ADS-B
Thu 04:33:42 PM 40.6350 -111.7330 204° Southwest 496 571 39,000  Level FlightAware ADS-B
Thu 04:34:22 PM 40.5520 -111.7810 204° Southwest 494 568 39,000  Level FlightAware ADS-B
Thu 04:35:07 PM 40.4600 -111.8340 204° Southwest 493 567 39,000  Level FlightAware ADS-B
Thu 04:35:47 PM 40.3750 -111.8830 204° Southwest 493 567 39,000 75 Level FlightAware ADS-B
Thu 04:36:27 PM 40.2960 -111.9290 204° Southwest 491 565 39,100 353 Climbing FlightAware ADS-B
Thu 04:37:12 PM 40.2000 -111.9890 206° Southwest 492 566 39,500 525 Climbing FlightAware ADS-B
Thu 04:37:47 PM 40.1270 -112.0290 203° Southwest 495 570 39,800 375 Climbing FlightAware ADS-B
Thu 04:38:32 PM 40.0290 -112.0830 203° Southwest 498 573 40,000 114 Climbing FlightAware ADS-B
Thu 04:39:32 PM 39.9100 -112.1500 203° Southwest 498 573 40,000  Level FlightAware ADS-B
Thu 04:40:12 PM 39.8380 -112.1900 203° Southwest 498 573 40,000  Level FlightAware ADS-B
Thu 04:40:57 PM 39.7330 -112.2560 206° Southwest 497 572 40,000  Level FlightAware ADS-B
Thu 04:41:37 PM 39.6620 -112.2970 204° Southwest 497 572 40,000  Level FlightAware ADS-B
Thu 04:42:17 PM 39.5900 -112.3380 204° Southwest 497 572 40,000  Level FlightAware ADS-B
Thu 04:42:57 PM 39.5190 -112.3790 204° Southwest 497 572 40,000  Level FlightAware ADS-B
Thu 04:43:27 PM 39.4650 -112.4100 204° Southwest 497 572 40,000  Level FlightAware ADS-B
Thu 04:44:07 PM 39.3940 -112.4510 204° Southwest 497 572 40,000  Level FlightAware ADS-B
Thu 04:44:37 PM 39.3400 -112.4820 204° Southwest 497 572 40,000  Level FlightAware ADS-B
Thu 04:45:17 PM 39.2690 -112.5230 204° Southwest 497 572 40,000  Level FlightAware ADS-B
Thu 04:45:57 PM 39.1970 -112.5640 204° Southwest 497 572 40,000  Level FlightAware ADS-B
Thu 04:46:37 PM 39.1260 -112.6050 204° Southwest 497 572 40,000  Level FlightAware ADS-B
Thu 04:47:27 PM 39.0370 -112.6570 204° Southwest 497 572 40,000  Level FlightAware ADS-B
Thu 04:48:07 PM 38.9650 -112.6980 204° Southwest 497 572 40,000  Level FlightAware ADS-B
Thu 04:48:47 PM 38.8940 -112.7380 204° Southwest 497 572 40,000  Level FlightAware ADS-B
Thu 04:49:27 PM 38.8220 -112.7790 204° Southwest 497 572 40,000  Level FlightAware ADS-B
Thu 04:50:07 PM 38.7510 -112.8200 204° Southwest 497 572 40,000  Level FlightAware ADS-B
Thu 04:50:23 PM 38.5414 -112.9189 204° Southwest 493 567 40,000  Level Salt Lake Center
Thu 04:51:25 PM 38.4161 -112.9847 202° Southwest 491 565 40,000  Level Salt Lake Center
Thu 04:52:26 PM 38.2967 -113.0681 209° Southwest 492 566 40,000  Level Salt Lake Center
Thu 04:58:12 PM 37.6130 -113.6120 209° Southwest 503 579 40,000  Level FlightAware ADS-B
Thu 04:58:57 PM 37.5290 -113.6790 212° Southwest 503 579 40,000  Level FlightAware ADS-B
Thu 04:59:37 PM 37.4490 -113.7430 212° Southwest 503 579 40,000  Level FlightAware ADS-B
Thu 05:00:17 PM 37.3720 -113.8040 212° Southwest 503 579 40,000  Level FlightAware ADS-B
Thu 05:01:02 PM 37.2810 -113.8750 212° Southwest 501 577 40,000  Level FlightAware ADS-B
Thu 05:01:42 PM 37.2020 -113.9360 212° Southwest 498 573 40,000  Level FlightAware ADS-B
Thu 05:02:27 PM 37.1140 -114.0050 212° Southwest 498 573 40,000  Level FlightAware ADS-B
Thu 05:03:07 PM 37.0350 -114.0660 212° Southwest 497 572 40,000  Level FlightAware ADS-B
Thu 05:03:47 PM 36.9560 -114.1280 212° Southwest 497 572 40,000  Level FlightAware ADS-B
Thu 05:04:27 PM 36.8790 -114.1880 212° Southwest 497 572 40,000  Level FlightAware ADS-B
Thu 05:05:12 PM 36.7880 -114.2590 212° Southwest 498 573 40,000  Level FlightAware ADS-B
Thu 05:05:57 PM 36.7010 -114.3250 211° Southwest 498 573 40,000  Level FlightAware ADS-B
Thu 05:06:37 PM 36.6250 -114.3830 211° Southwest 498 573 40,000  Level FlightAware ADS-B
Thu 05:07:17 PM 36.5430 -114.4440 211° Southwest 498 573 40,000  Level FlightAware ADS-B
Thu 05:07:57 PM 36.4660 -114.5020 211° Southwest 498 573 40,000  Level FlightAware ADS-B
Thu 05:08:42 PM 36.3760 -114.5710 212° Southwest 498 573 40,000  Level FlightAware ADS-B
Thu 05:09:22 PM 36.3000 -114.6300 212° Southwest 497 572 40,000  Level FlightAware ADS-B
Thu 05:10:02 PM 36.2180 -114.6940 212° Southwest 498 573 40,000  Level FlightAware ADS-B
Thu 05:10:52 PM 36.1210 -114.7670 211° Southwest 498 573 40,000  Level FlightAware ADS-B
Thu 05:11:32 PM 36.0430 -114.8270 212° Southwest 498 573 40,000  Level FlightAware ADS-B
Thu 05:12:12 PM 35.9710 -114.8990 219° Southwest 497 572 40,000  Level FlightAware ADS-B
Thu 05:12:57 PM 35.9000 -114.9910 226° Southwest 498 573 40,000  Level FlightAware ADS-B
Thu 05:13:37 PM 35.8390 -115.0760 228° Southwest 499 574 40,000  Level FlightAware ADS-B
Thu 05:14:22 PM 35.7680 -115.1730 228° Southwest 499 574 40,000  Level FlightAware ADS-B
Thu 05:15:02 PM 35.7070 -115.2550 228° Southwest 499 574 40,000  Level FlightAware ADS-B
Thu 05:15:42 PM 35.6440 -115.3410 228° Southwest 499 574 40,000  Level FlightAware ADS-B
Thu 05:16:27 PM 35.5770 -115.4310 228° Southwest 498 573 40,000  Level FlightAware ADS-B
Thu 05:17:07 PM 35.5140 -115.5140 227° Southwest 496 571 40,000  Level FlightAware ADS-B
Thu 05:17:52 PM 35.4420 -115.6120 228° Southwest 496 571 40,000  Level FlightAware ADS-B
Thu 05:18:32 PM 35.3830 -115.6900 227° Southwest 494 568 40,000  Level FlightAware ADS-B
Thu 05:19:12 PM 35.3180 -115.7770 228° Southwest 494 568 40,000  Level FlightAware ADS-B
Thu 05:19:57 PM 35.2560 -115.8560 226° Southwest 493 567 40,000  Level FlightAware ADS-B
Thu 05:20:37 PM 35.2040 -115.9260 228° Southwest 493 567 40,000  Level FlightAware ADS-B
Thu 05:21:17 PM 35.1510 -115.9950 227° Southwest 493 567 40,000  Level FlightAware ADS-B
Thu 05:21:57 PM 35.0980 -116.0640 227° Southwest 493 567 40,000  Level FlightAware ADS-B
Thu 05:22:37 PM 35.0450 -116.1340 227° Southwest 493 567 40,000 -3,133 Level FlightAware ADS-B
Thu 05:23:27 PM 34.9310 -116.2880 228° Southwest 482 555 35,300 -4,067 Descending FlightAware ADS-B
Thu 05:24:07 PM 34.8650 -116.3730 227° Southwest 473 544 33,900 -2,100 Descending FlightAware ADS-B
Thu 05:24:47 PM 34.8060 -116.4500 227° Southwest 469 540 32,500 -2,188 Descending FlightAware ADS-B
Thu 05:25:32 PM 34.7380 -116.5390 227° Southwest 464 534 30,800 -2,259 Descending FlightAware ADS-B
Thu 05:26:12 PM 34.6790 -116.6170 227° Southwest 463 533 29,300 -2,047 Descending FlightAware ADS-B
Thu 05:26:57 PM 34.6160 -116.6980 227° Southwest 453 521 27,900 -1,835 Descending FlightAware ADS-B
Thu 05:27:37 PM 34.5620 -116.7680 227° Southwest 447 514 26,700 -1,694 Descending FlightAware ADS-B
Thu 05:28:22 PM 34.4980 -116.8590 230° Southwest 426 490 25,500 -1,694 Descending FlightAware ADS-B
Thu 05:29:02 PM 34.4460 -116.9290 228° Southwest 415 478 24,300 -1,600 Descending FlightAware ADS-B
Thu 05:29:37 PM 34.4080 -116.9720 223° Southwest 408 470 23,500 -1,624 Descending FlightAware ADS-B
Thu 05:30:27 PM 34.3360 -117.0610 226° Southwest 393 452 22,000 -1,867 Descending FlightAware ADS-B
Thu 05:31:07 PM 34.2850 -117.1260 226° Southwest 387 445 20,700 -1,835 Descending FlightAware ADS-B
Thu 05:31:52 PM 34.2300 -117.1990 228° Southwest 378 435 19,400 -1,200 Descending FlightAware ADS-B
Thu 05:32:32 PM 34.1820 -117.2590 226° Southwest 356 410 19,000 -900 Descending FlightAware ADS-B
Thu 05:33:12 PM 34.1390 -117.3150 227° Southwest 338 389 18,200 -1,624 Descending FlightAware ADS-B
Thu 05:33:57 PM 34.0920 -117.3740 226° Southwest 332 382 16,700 -1,976 Descending FlightAware ADS-B
Thu 05:34:37 PM 34.0500 -117.4280 227° Southwest 324 373 15,400 -2,073 Descending FlightAware ADS-B
Thu 05:34:52 PM 34.0360 -117.4510 234° Southwest 319 367 14,800 -2,182 Descending FlightAware ADS-B
Thu 05:35:32 PM 34.0220 -117.5170 256° West 310 357 13,400 -1,906 Descending FlightAware ADS-B
Thu 05:36:17 PM 34.0160 -117.5920 265° West 303 349 12,100 -1,765 Descending FlightAware ADS-B
Thu 05:36:57 PM 34.0090 -117.6610 263° West 298 343 10,900 -1,575 Descending FlightAware ADS-B
Thu 05:37:37 PM 34.0030 -117.7260 264° West 292 336 10,000 -1,371 Descending FlightAware ADS-B
Thu 05:38:07 PM 33.9980 -117.7720 263° West 283 326 9,300 -1,200 Descending FlightAware ADS-B
Thu 05:38:37 PM 33.9940 -117.8170 264° West 258 297 8,800 -1,200 Descending FlightAware ADS-B
Thu 05:39:02 PM 33.9900 -117.8540 263° West 248 285 8,200 -1,527 Descending FlightAware ADS-B
Thu 05:39:32 PM 33.9860 -117.8960 263° West 247 284 7,400 -1,527 Descending FlightAware ADS-B
Thu 05:39:57 PM 33.9830 -117.9290 264° West 248 285 6,800 -1,350 Descending FlightAware ADS-B
Thu 05:40:12 PM 33.9800 -117.9510 261° West 244 281 6,500 -1,067 Descending FlightAware ADS-B
Thu 05:40:42 PM 33.9770 -117.9890 265° West 238 274 6,000 -1,067 Descending FlightAware ADS-B
Thu 05:40:57 PM 33.9750 -118.0090 263° West 232 267 5,700 -900 Descending FlightAware ADS-B
Thu 05:41:22 PM 33.9720 -118.0410 264° West 218 251 5,400 -600 Descending FlightAware ADS-B
Thu 05:41:37 PM 33.9700 -118.0580 262° West 208 239 5,300 -800 Descending FlightAware ADS-B
Thu 05:42:07 PM 33.9670 -118.0920 264° West 195 224 4,800 -1,067 Descending FlightAware ADS-B
Thu 05:42:22 PM 33.9650 -118.1090 262° West 191 220 4,500 -1,050 Descending FlightAware ADS-B
Thu 05:42:47 PM 33.9620 -118.1340 262° West 188 216 4,100 -982 Descending FlightAware ADS-B
Thu 05:43:17 PM 33.9590 -118.1650 263° West 193 222 3,600 -982 Descending FlightAware ADS-B
Thu 05:43:42 PM 33.9570 -118.1890 264° West 189 217 3,200 -1,091 Descending FlightAware ADS-B
Thu 05:44:12 PM 33.9530 -118.2250 262° West 190 219 2,600 -1,067 Descending FlightAware ADS-B
Thu 05:44:27 PM 33.9520 -118.2380 265° West 187 215 2,400 -857 Descending FlightAware ADS-B
Thu 05:44:47 PM 33.9500 -118.2580 263° West 175 201 2,100 -982 Descending FlightAware ADS-B
Thu 05:45:22 PM 33.9470 -118.2920 264° West 158 182 1,500 -600 Descending FlightAware ADS-B
Thu 05:45:47 PM 33.9450 -118.3120 263° West 158 182 1,500 -360 Level FlightAware ADS-B
Thu 05:46:12 PM 33.9440 -118.3130 220° Southwest 140 161 1,200 -400 Descending FlightAware ADS-B
Thu 05:46:47 PM 33.9420 -118.3370 264° West 137 158 1,100 -800 Descending FlightAware ADS-B
Thu 05:47:12 PM 33.9400 -118.3600 264° West 137 158 400 -1,371 Descending FlightAware ADS-B
Thu 05:47:22 PM 33.9390 -118.3670 260° West 137 158 300 -327 Descending FlightAware ADS-B
Thu 05:48:07 PM 33.9360 -118.3990 264° West 139 160 100 -267 Descending FlightAware ADS-B
Thu 05:55:00 PM 33.9333 -118.4000 North  Level FlightAware Approximate
Thu 05:56:00 PM 33.9425 -118.4081 North  Level Estimated

Login

Don't have an account? Register now (free) for customized features, flight alerts, and more!